﻿<?xml version='1.0' encoding='UTF-8'?>
<gpx xmlns:xsd="http://www.w3.org/2001/XMLSchema" xmlns:xsi="http://www.w3.org/2001/XMLSchema-instance" version="1.1" creator="Magellan User Data Storage export library" xsi:schemaLocation="http://www.topografix.com/GPX/1/1 http://www.topografix.com/GPX/1/1/gpx.xsd" xmlns="http://www.topografix.com/GPX/1/1">
	<trk>
		<name>ALTDORF</name>
		<trkseg>
			<trkpt lat="49.388980000000" lon="11.355010000000">
				<ele>472.000000</ele>
				<time>2009-09-06T09:12:59.000Z</time>
				<speed>0.000000</speed>
			</trkpt>
			<trkpt lat="49.388820000000" lon="11.354870000000">
				<ele>447.000000</ele>
				<time>2009-09-06T09:13:43.000Z</time>
				<speed>0.000000</speed>
			</trkpt>
			<trkpt lat="49.388790000000" lon="11.354890000000">
				<ele>443.000000</ele>
				<time>2009-09-06T09:14:28.000Z</time>
				<speed>0.000000</speed>
			</trkpt>
			<trkpt lat="49.388730000000" lon="11.354930000000">
				<ele>437.000000</ele>
				<time>2009-09-06T09:14:35.000Z</time>
				<speed>0.000000</speed>
			</trkpt>
			<trkpt lat="49.388680000000" lon="11.354910000000">
				<ele>433.000000</ele>
				<time>2009-09-06T09:14:44.000Z</time>
				<speed>0.000000</speed>
			</trkpt>
			<trkpt lat="49.388610000000" lon="11.354900000000">
				<ele>433.000000</ele>
				<time>2009-09-06T09:14:50.000Z</time>
				<speed>0.000000</speed>
			</trkpt>
			<trkpt lat="49.388520000000" lon="11.354910000000">
				<ele>433.000000</ele>
				<time>2009-09-06T09:14:56.000Z</time>
				<speed>0.000000</speed>
			</trkpt>
			<trkpt lat="49.388360000000" lon="11.355020000000">
				<ele>435.000000</ele>
				<time>2009-09-06T09:15:07.000Z</time>
				<speed>0.000000</speed>
			</trkpt>
			<trkpt lat="49.388320000000" lon="11.355090000000">
				<ele>437.000000</ele>
				<time>2009-09-06T09:15:12.000Z</time>
				<speed>0.000000</speed>
			</trkpt>
			<trkpt lat="49.388340000000" lon="11.355160000000">
				<ele>441.000000</ele>
				<time>2009-09-06T09:15:18.000Z</time>
				<speed>0.000000</speed>
			</trkpt>
			<trkpt lat="49.388290000000" lon="11.355210000000">
				<ele>445.000000</ele>
				<time>2009-09-06T09:15:23.000Z</time>
				<speed>0.000000</speed>
			</trkpt>
			<trkpt lat="49.388240000000" lon="11.355280000000">
				<ele>448.000000</ele>
				<time>2009-09-06T09:15:30.000Z</time>
				<speed>0.000000</speed>
			</trkpt>
			<trkpt lat="49.388180000000" lon="11.355360000000">
				<ele>448.000000</ele>
				<time>2009-09-06T09:15:36.000Z</time>
				<speed>0.000000</speed>
			</trkpt>
			<trkpt lat="49.388020000000" lon="11.355570000000">
				<ele>448.000000</ele>
				<time>2009-09-06T09:15:54.000Z</time>
				<speed>0.000000</speed>
			</trkpt>
			<trkpt lat="49.387990000000" lon="11.355640000000">
				<ele>445.000000</ele>
				<time>2009-09-06T09:16:02.000Z</time>
				<speed>0.000000</speed>
			</trkpt>
			<trkpt lat="49.387860000000" lon="11.355760000000">
				<ele>438.000000</ele>
				<time>2009-09-06T09:16:12.000Z</time>
				<speed>0.000000</speed>
			</trkpt>
			<trkpt lat="49.387820000000" lon="11.355800000000">
				<ele>434.000000</ele>
				<time>2009-09-06T09:16:17.000Z</time>
				<speed>0.000000</speed>
			</trkpt>
			<trkpt lat="49.387710000000" lon="11.355770000000">
				<ele>424.000000</ele>
				<time>2009-09-06T09:16:50.000Z</time>
				<speed>0.000000</speed>
			</trkpt>
			<trkpt lat="49.387590000000" lon="11.355510000000">
				<ele>422.000000</ele>
				<time>2009-09-06T09:17:16.000Z</time>
				<speed>0.000000</speed>
			</trkpt>
			<trkpt lat="49.387540000000" lon="11.355300000000">
				<ele>418.000000</ele>
				<time>2009-09-06T09:17:30.000Z</time>
				<speed>0.000000</speed>
			</trkpt>
			<trkpt lat="49.387520000000" lon="11.355220000000">
				<ele>418.000000</ele>
				<time>2009-09-06T09:17:35.000Z</time>
				<speed>0.000000</speed>
			</trkpt>
			<trkpt lat="49.387510000000" lon="11.354890000000">
				<ele>421.000000</ele>
				<time>2009-09-06T09:17:57.000Z</time>
				<speed>0.000000</speed>
			</trkpt>
			<trkpt lat="49.387490000000" lon="11.354820000000">
				<ele>420.000000</ele>
				<time>2009-09-06T09:18:02.000Z</time>
				<speed>0.000000</speed>
			</trkpt>
			<trkpt lat="49.387510000000" lon="11.354740000000">
				<ele>422.000000</ele>
				<time>2009-09-06T09:18:09.000Z</time>
				<speed>0.000000</speed>
			</trkpt>
			<trkpt lat="49.387540000000" lon="11.354630000000">
				<ele>425.000000</ele>
				<time>2009-09-06T09:18:18.000Z</time>
				<speed>0.000000</speed>
			</trkpt>
			<trkpt lat="49.387370000000" lon="11.354400000000">
				<ele>426.000000</ele>
				<time>2009-09-06T09:18:37.000Z</time>
				<speed>0.000000</speed>
			</trkpt>
			<trkpt lat="49.387280000000" lon="11.354300000000">
				<ele>427.000000</ele>
				<time>2009-09-06T09:18:41.000Z</time>
				<speed>0.000000</speed>
			</trkpt>
			<trkpt lat="49.387150000000" lon="11.354150000000">
				<ele>425.000000</ele>
				<time>2009-09-06T09:18:54.000Z</time>
				<speed>0.000000</speed>
			</trkpt>
			<trkpt lat="49.387070000000" lon="11.354070000000">
				<ele>424.000000</ele>
				<time>2009-09-06T09:19:01.000Z</time>
				<speed>0.000000</speed>
			</trkpt>
			<trkpt lat="49.387040000000" lon="11.354000000000">
				<ele>424.000000</ele>
				<time>2009-09-06T09:19:06.000Z</time>
				<speed>0.000000</speed>
			</trkpt>
			<trkpt lat="49.386990000000" lon="11.353900000000">
				<ele>425.000000</ele>
				<time>2009-09-06T09:19:14.000Z</time>
				<speed>0.000000</speed>
			</trkpt>
			<trkpt lat="49.386820000000" lon="11.353790000000">
				<ele>423.000000</ele>
				<time>2009-09-06T09:19:24.000Z</time>
				<speed>0.000000</speed>
			</trkpt>
			<trkpt lat="49.386800000000" lon="11.353670000000">
				<ele>419.000000</ele>
				<time>2009-09-06T09:19:32.000Z</time>
				<speed>0.000000</speed>
			</trkpt>
			<trkpt lat="49.386730000000" lon="11.353560000000">
				<ele>420.000000</ele>
				<time>2009-09-06T09:19:39.000Z</time>
				<speed>0.000000</speed>
			</trkpt>
			<trkpt lat="49.386650000000" lon="11.353450000000">
				<ele>420.000000</ele>
				<time>2009-09-06T09:19:49.000Z</time>
				<speed>0.000000</speed>
			</trkpt>
			<trkpt lat="49.386340000000" lon="11.353280000000">
				<ele>416.000000</ele>
				<time>2009-09-06T09:19:59.000Z</time>
				<speed>0.000000</speed>
			</trkpt>
			<trkpt lat="49.386290000000" lon="11.353190000000">
				<ele>415.000000</ele>
				<time>2009-09-06T09:20:07.000Z</time>
				<speed>0.000000</speed>
			</trkpt>
			<trkpt lat="49.386280000000" lon="11.353110000000">
				<ele>414.000000</ele>
				<time>2009-09-06T09:20:15.000Z</time>
				<speed>0.000000</speed>
			</trkpt>
			<trkpt lat="49.386260000000" lon="11.353030000000">
				<ele>414.000000</ele>
				<time>2009-09-06T09:20:23.000Z</time>
				<speed>0.000000</speed>
			</trkpt>
			<trkpt lat="49.386240000000" lon="11.352960000000">
				<ele>414.000000</ele>
				<time>2009-09-06T09:20:33.000Z</time>
				<speed>0.000000</speed>
			</trkpt>
			<trkpt lat="49.386180000000" lon="11.352950000000">
				<ele>413.000000</ele>
				<time>2009-09-06T09:20:42.000Z</time>
				<speed>0.000000</speed>
			</trkpt>
			<trkpt lat="49.385910000000" lon="11.352930000000">
				<ele>413.000000</ele>
				<time>2009-09-06T09:21:08.000Z</time>
				<speed>0.000000</speed>
			</trkpt>
			<trkpt lat="49.385930000000" lon="11.352960000000">
				<ele>418.000000</ele>
				<time>2009-09-06T09:21:33.000Z</time>
				<speed>0.000000</speed>
			</trkpt>
			<trkpt lat="49.385880000000" lon="11.352910000000">
				<ele>422.000000</ele>
				<time>2009-09-06T09:21:48.000Z</time>
				<speed>0.000000</speed>
			</trkpt>
			<trkpt lat="49.385770000000" lon="11.352950000000">
				<ele>421.000000</ele>
				<time>2009-09-06T09:21:56.000Z</time>
				<speed>0.000000</speed>
			</trkpt>
			<trkpt lat="49.385710000000" lon="11.352940000000">
				<ele>421.000000</ele>
				<time>2009-09-06T09:22:14.000Z</time>
				<speed>0.000000</speed>
			</trkpt>
			<trkpt lat="49.385610000000" lon="11.352920000000">
				<ele>419.000000</ele>
				<time>2009-09-06T09:22:29.000Z</time>
				<speed>0.000000</speed>
			</trkpt>
			<trkpt lat="49.385280000000" lon="11.352870000000">
				<ele>414.000000</ele>
				<time>2009-09-06T09:22:41.000Z</time>
				<speed>0.000000</speed>
			</trkpt>
			<trkpt lat="49.385150000000" lon="11.352660000000">
				<ele>413.000000</ele>
				<time>2009-09-06T09:22:45.000Z</time>
				<speed>0.000000</speed>
			</trkpt>
			<trkpt lat="49.385150000000" lon="11.352630000000">
				<ele>412.000000</ele>
				<time>2009-09-06T09:22:52.000Z</time>
				<speed>0.000000</speed>
			</trkpt>
			<trkpt lat="49.385220000000" lon="11.352650000000">
				<ele>413.000000</ele>
				<time>2009-09-06T09:22:57.000Z</time>
				<speed>0.000000</speed>
			</trkpt>
			<trkpt lat="49.385290000000" lon="11.352730000000">
				<ele>412.000000</ele>
				<time>2009-09-06T09:23:03.000Z</time>
				<speed>0.000000</speed>
			</trkpt>
			<trkpt lat="49.385230000000" lon="11.352850000000">
				<ele>414.000000</ele>
				<time>2009-09-06T09:23:09.000Z</time>
				<speed>0.000000</speed>
			</trkpt>
			<trkpt lat="49.385170000000" lon="11.352940000000">
				<ele>416.000000</ele>
				<time>2009-09-06T09:23:23.000Z</time>
				<speed>0.000000</speed>
			</trkpt>
			<trkpt lat="49.385200000000" lon="11.352770000000">
				<ele>412.000000</ele>
				<time>2009-09-06T09:23:32.000Z</time>
				<speed>0.000000</speed>
			</trkpt>
			<trkpt lat="49.385120000000" lon="11.352770000000">
				<ele>412.000000</ele>
				<time>2009-09-06T09:23:46.000Z</time>
				<speed>0.000000</speed>
			</trkpt>
			<trkpt lat="49.385110000000" lon="11.352700000000">
				<ele>408.000000</ele>
				<time>2009-09-06T09:23:51.000Z</time>
				<speed>0.000000</speed>
			</trkpt>
			<trkpt lat="49.385000000000" lon="11.352610000000">
				<ele>403.000000</ele>
				<time>2009-09-06T09:24:07.000Z</time>
				<speed>0.000000</speed>
			</trkpt>
			<trkpt lat="49.384880000000" lon="11.352640000000">
				<ele>404.000000</ele>
				<time>2009-09-06T09:24:15.000Z</time>
				<speed>0.000000</speed>
			</trkpt>
			<trkpt lat="49.384820000000" lon="11.352670000000">
				<ele>405.000000</ele>
				<time>2009-09-06T09:24:22.000Z</time>
				<speed>0.000000</speed>
			</trkpt>
			<trkpt lat="49.384650000000" lon="11.352730000000">
				<ele>411.000000</ele>
				<time>2009-09-06T09:24:39.000Z</time>
				<speed>0.000000</speed>
			</trkpt>
			<trkpt lat="49.384530000000" lon="11.352750000000">
				<ele>411.000000</ele>
				<time>2009-09-06T09:24:53.000Z</time>
				<speed>0.000000</speed>
			</trkpt>
			<trkpt lat="49.383160000000" lon="11.352570000000">
				<ele>403.000000</ele>
				<time>2009-09-06T09:26:08.000Z</time>
				<speed>0.000000</speed>
			</trkpt>
			<trkpt lat="49.383170000000" lon="11.352570000000">
				<ele>403.000000</ele>
				<time>2009-09-06T09:26:09.000Z</time>
				<speed>0.000000</speed>
			</trkpt>
			<trkpt lat="49.383240000000" lon="11.352570000000">
				<ele>402.000000</ele>
				<time>2009-09-06T09:26:21.000Z</time>
				<speed>0.000000</speed>
			</trkpt>
			<trkpt lat="49.383180000000" lon="11.352620000000">
				<ele>403.000000</ele>
				<time>2009-09-06T09:26:34.000Z</time>
				<speed>0.000000</speed>
			</trkpt>
			<trkpt lat="49.383010000000" lon="11.352540000000">
				<ele>403.000000</ele>
				<time>2009-09-06T09:26:39.000Z</time>
				<speed>0.000000</speed>
			</trkpt>
			<trkpt lat="49.383100000000" lon="11.352440000000">
				<ele>403.000000</ele>
				<time>2009-09-06T09:26:59.000Z</time>
				<speed>0.000000</speed>
			</trkpt>
			<trkpt lat="49.383010000000" lon="11.352400000000">
				<ele>403.000000</ele>
				<time>2009-09-06T09:27:06.000Z</time>
				<speed>0.000000</speed>
			</trkpt>
			<trkpt lat="49.382840000000" lon="11.352360000000">
				<ele>403.000000</ele>
				<time>2009-09-06T09:27:17.000Z</time>
				<speed>0.000000</speed>
			</trkpt>
			<trkpt lat="49.382710000000" lon="11.352210000000">
				<ele>404.000000</ele>
				<time>2009-09-06T09:27:28.000Z</time>
				<speed>0.000000</speed>
			</trkpt>
			<trkpt lat="49.381840000000" lon="11.351630000000">
				<ele>398.000000</ele>
				<time>2009-09-06T09:28:32.000Z</time>
				<speed>0.000000</speed>
			</trkpt>
			<trkpt lat="49.381790000000" lon="11.351620000000">
				<ele>397.000000</ele>
				<time>2009-09-06T09:28:33.000Z</time>
				<speed>0.000000</speed>
			</trkpt>
			<trkpt lat="49.381530000000" lon="11.351510000000">
				<ele>391.000000</ele>
				<time>2009-09-06T09:28:39.000Z</time>
				<speed>0.000000</speed>
			</trkpt>
			<trkpt lat="49.381160000000" lon="11.351260000000">
				<ele>386.000000</ele>
				<time>2009-09-06T09:28:47.000Z</time>
				<speed>0.000000</speed>
			</trkpt>
			<trkpt lat="49.381010000000" lon="11.351240000000">
				<ele>383.000000</ele>
				<time>2009-09-06T09:28:54.000Z</time>
				<speed>0.000000</speed>
			</trkpt>
			<trkpt lat="49.380740000000" lon="11.351080000000">
				<ele>379.000000</ele>
				<time>2009-09-06T09:29:09.000Z</time>
				<speed>0.000000</speed>
			</trkpt>
			<trkpt lat="49.381000000000" lon="11.351130000000">
				<ele>394.000000</ele>
				<time>2009-09-06T09:29:15.000Z</time>
				<speed>0.000000</speed>
			</trkpt>
			<trkpt lat="49.381470000000" lon="11.351260000000">
				<ele>423.000000</ele>
				<time>2009-09-06T09:29:26.000Z</time>
				<speed>0.000000</speed>
			</trkpt>
			<trkpt lat="49.381520000000" lon="11.351270000000">
				<ele>426.000000</ele>
				<time>2009-09-06T09:29:27.000Z</time>
				<speed>0.000000</speed>
			</trkpt>
			<trkpt lat="49.381810000000" lon="11.351430000000">
				<ele>453.000000</ele>
				<time>2009-09-06T09:29:45.000Z</time>
				<speed>0.000000</speed>
			</trkpt>
			<trkpt lat="49.381760000000" lon="11.351390000000">
				<ele>452.000000</ele>
				<time>2009-09-06T09:29:53.000Z</time>
				<speed>0.000000</speed>
			</trkpt>
			<trkpt lat="49.381650000000" lon="11.351320000000">
				<ele>447.000000</ele>
				<time>2009-09-06T09:30:03.000Z</time>
				<speed>0.000000</speed>
			</trkpt>
			<trkpt lat="49.381330000000" lon="11.351200000000">
				<ele>440.000000</ele>
				<time>2009-09-06T09:30:29.000Z</time>
				<speed>0.000000</speed>
			</trkpt>
			<trkpt lat="49.381250000000" lon="11.351180000000">
				<ele>439.000000</ele>
				<time>2009-09-06T09:30:36.000Z</time>
				<speed>0.000000</speed>
			</trkpt>
			<trkpt lat="49.381190000000" lon="11.351160000000">
				<ele>439.000000</ele>
				<time>2009-09-06T09:30:41.000Z</time>
				<speed>0.000000</speed>
			</trkpt>
			<trkpt lat="49.381070000000" lon="11.351110000000">
				<ele>437.000000</ele>
				<time>2009-09-06T09:30:55.000Z</time>
				<speed>0.000000</speed>
			</trkpt>
			<trkpt lat="49.380990000000" lon="11.351090000000">
				<ele>437.000000</ele>
				<time>2009-09-06T09:31:04.000Z</time>
				<speed>0.000000</speed>
			</trkpt>
			<trkpt lat="49.380890000000" lon="11.351000000000">
				<ele>439.000000</ele>
				<time>2009-09-06T09:31:14.000Z</time>
				<speed>0.000000</speed>
			</trkpt>
			<trkpt lat="49.380840000000" lon="11.350970000000">
				<ele>439.000000</ele>
				<time>2009-09-06T09:31:19.000Z</time>
				<speed>0.000000</speed>
			</trkpt>
			<trkpt lat="49.380710000000" lon="11.350930000000">
				<ele>439.000000</ele>
				<time>2009-09-06T09:31:34.000Z</time>
				<speed>0.000000</speed>
			</trkpt>
			<trkpt lat="49.380650000000" lon="11.350890000000">
				<ele>438.000000</ele>
				<time>2009-09-06T09:31:39.000Z</time>
				<speed>0.000000</speed>
			</trkpt>
			<trkpt lat="49.380570000000" lon="11.350840000000">
				<ele>436.000000</ele>
				<time>2009-09-06T09:31:47.000Z</time>
				<speed>0.000000</speed>
			</trkpt>
			<trkpt lat="49.380370000000" lon="11.350710000000">
				<ele>437.000000</ele>
				<time>2009-09-06T09:32:24.000Z</time>
				<speed>0.000000</speed>
			</trkpt>
			<trkpt lat="49.380260000000" lon="11.350620000000">
				<ele>435.000000</ele>
				<time>2009-09-06T09:32:46.000Z</time>
				<speed>0.000000</speed>
			</trkpt>
			<trkpt lat="49.380210000000" lon="11.350580000000">
				<ele>431.000000</ele>
				<time>2009-09-06T09:32:56.000Z</time>
				<speed>0.000000</speed>
			</trkpt>
			<trkpt lat="49.379890000000" lon="11.350240000000">
				<ele>422.000000</ele>
				<time>2009-09-06T09:33:41.000Z</time>
				<speed>0.000000</speed>
			</trkpt>
			<trkpt lat="49.379720000000" lon="11.349990000000">
				<ele>422.000000</ele>
				<time>2009-09-06T09:34:03.000Z</time>
				<speed>0.000000</speed>
			</trkpt>
			<trkpt lat="49.379550000000" lon="11.349760000000">
				<ele>423.000000</ele>
				<time>2009-09-06T09:34:27.000Z</time>
				<speed>0.000000</speed>
			</trkpt>
			<trkpt lat="49.379490000000" lon="11.349780000000">
				<ele>416.000000</ele>
				<time>2009-09-06T09:34:57.000Z</time>
				<speed>0.000000</speed>
			</trkpt>
			<trkpt lat="49.379470000000" lon="11.349790000000">
				<ele>420.000000</ele>
				<time>2009-09-06T09:35:28.000Z</time>
				<speed>0.000000</speed>
			</trkpt>
			<trkpt lat="49.379330000000" lon="11.349700000000">
				<ele>420.000000</ele>
				<time>2009-09-06T09:35:43.000Z</time>
				<speed>0.000000</speed>
			</trkpt>
			<trkpt lat="49.379170000000" lon="11.349610000000">
				<ele>419.000000</ele>
				<time>2009-09-06T09:35:58.000Z</time>
				<speed>0.000000</speed>
			</trkpt>
			<trkpt lat="49.379040000000" lon="11.349520000000">
				<ele>422.000000</ele>
				<time>2009-09-06T09:36:20.000Z</time>
				<speed>0.000000</speed>
			</trkpt>
			<trkpt lat="49.378770000000" lon="11.349400000000">
				<ele>415.000000</ele>
				<time>2009-09-06T09:36:46.000Z</time>
				<speed>0.000000</speed>
			</trkpt>
			<trkpt lat="49.378590000000" lon="11.349290000000">
				<ele>411.000000</ele>
				<time>2009-09-06T09:36:58.000Z</time>
				<speed>0.000000</speed>
			</trkpt>
			<trkpt lat="49.378450000000" lon="11.349180000000">
				<ele>412.000000</ele>
				<time>2009-09-06T09:37:09.000Z</time>
				<speed>0.000000</speed>
			</trkpt>
			<trkpt lat="49.378380000000" lon="11.349140000000">
				<ele>414.000000</ele>
				<time>2009-09-06T09:37:14.000Z</time>
				<speed>0.000000</speed>
			</trkpt>
			<trkpt lat="49.378340000000" lon="11.349090000000">
				<ele>417.000000</ele>
				<time>2009-09-06T09:37:26.000Z</time>
				<speed>0.000000</speed>
			</trkpt>
			<trkpt lat="49.378220000000" lon="11.348980000000">
				<ele>417.000000</ele>
				<time>2009-09-06T09:37:43.000Z</time>
				<speed>0.000000</speed>
			</trkpt>
			<trkpt lat="49.378170000000" lon="11.348950000000">
				<ele>417.000000</ele>
				<time>2009-09-06T09:37:49.000Z</time>
				<speed>0.000000</speed>
			</trkpt>
			<trkpt lat="49.377990000000" lon="11.348800000000">
				<ele>417.000000</ele>
				<time>2009-09-06T09:38:21.000Z</time>
				<speed>0.000000</speed>
			</trkpt>
			<trkpt lat="49.377650000000" lon="11.348590000000">
				<ele>415.000000</ele>
				<time>2009-09-06T09:39:06.000Z</time>
				<speed>0.000000</speed>
			</trkpt>
			<trkpt lat="49.377350000000" lon="11.348450000000">
				<ele>412.000000</ele>
				<time>2009-09-06T09:39:49.000Z</time>
				<speed>0.000000</speed>
			</trkpt>
			<trkpt lat="49.377240000000" lon="11.348300000000">
				<ele>416.000000</ele>
				<time>2009-09-06T09:40:01.000Z</time>
				<speed>0.000000</speed>
			</trkpt>
			<trkpt lat="49.377150000000" lon="11.348200000000">
				<ele>415.000000</ele>
				<time>2009-09-06T09:40:14.000Z</time>
				<speed>0.000000</speed>
			</trkpt>
			<trkpt lat="49.377050000000" lon="11.348100000000">
				<ele>414.000000</ele>
				<time>2009-09-06T09:40:26.000Z</time>
				<speed>0.000000</speed>
			</trkpt>
			<trkpt lat="49.376850000000" lon="11.347900000000">
				<ele>414.000000</ele>
				<time>2009-09-06T09:40:51.000Z</time>
				<speed>0.000000</speed>
			</trkpt>
			<trkpt lat="49.376710000000" lon="11.347870000000">
				<ele>415.000000</ele>
				<time>2009-09-06T09:41:06.000Z</time>
				<speed>0.000000</speed>
			</trkpt>
			<trkpt lat="49.376660000000" lon="11.347830000000">
				<ele>415.000000</ele>
				<time>2009-09-06T09:41:11.000Z</time>
				<speed>0.000000</speed>
			</trkpt>
			<trkpt lat="49.376600000000" lon="11.347740000000">
				<ele>415.000000</ele>
				<time>2009-09-06T09:41:20.000Z</time>
				<speed>0.000000</speed>
			</trkpt>
			<trkpt lat="49.376560000000" lon="11.347630000000">
				<ele>415.000000</ele>
				<time>2009-09-06T09:41:29.000Z</time>
				<speed>0.000000</speed>
			</trkpt>
			<trkpt lat="49.376490000000" lon="11.347480000000">
				<ele>416.000000</ele>
				<time>2009-09-06T09:41:41.000Z</time>
				<speed>0.000000</speed>
			</trkpt>
			<trkpt lat="49.376430000000" lon="11.347400000000">
				<ele>415.000000</ele>
				<time>2009-09-06T09:41:50.000Z</time>
				<speed>0.000000</speed>
			</trkpt>
			<trkpt lat="49.376370000000" lon="11.347370000000">
				<ele>416.000000</ele>
				<time>2009-09-06T09:42:07.000Z</time>
				<speed>0.000000</speed>
			</trkpt>
			<trkpt lat="49.376170000000" lon="11.347260000000">
				<ele>417.000000</ele>
				<time>2009-09-06T09:42:32.000Z</time>
				<speed>0.000000</speed>
			</trkpt>
			<trkpt lat="49.376070000000" lon="11.347210000000">
				<ele>415.000000</ele>
				<time>2009-09-06T09:42:44.000Z</time>
				<speed>0.000000</speed>
			</trkpt>
			<trkpt lat="49.375980000000" lon="11.347230000000">
				<ele>413.000000</ele>
				<time>2009-09-06T09:42:54.000Z</time>
				<speed>0.000000</speed>
			</trkpt>
			<trkpt lat="49.375560000000" lon="11.347470000000">
				<ele>405.000000</ele>
				<time>2009-09-06T09:43:45.000Z</time>
				<speed>0.000000</speed>
			</trkpt>
			<trkpt lat="49.375560000000" lon="11.347470000000">
				<ele>404.000000</ele>
				<time>2009-09-06T09:43:46.000Z</time>
				<speed>0.000000</speed>
			</trkpt>
			<trkpt lat="49.375520000000" lon="11.347500000000">
				<ele>406.000000</ele>
				<time>2009-09-06T09:44:20.000Z</time>
				<speed>0.000000</speed>
			</trkpt>
			<trkpt lat="49.375430000000" lon="11.347450000000">
				<ele>402.000000</ele>
				<time>2009-09-06T09:45:09.000Z</time>
				<speed>0.000000</speed>
			</trkpt>
			<trkpt lat="49.375370000000" lon="11.347370000000">
				<ele>403.000000</ele>
				<time>2009-09-06T09:45:34.000Z</time>
				<speed>0.000000</speed>
			</trkpt>
			<trkpt lat="49.375400000000" lon="11.347320000000">
				<ele>404.000000</ele>
				<time>2009-09-06T09:46:07.000Z</time>
				<speed>0.000000</speed>
			</trkpt>
			<trkpt lat="49.375540000000" lon="11.347090000000">
				<ele>415.000000</ele>
				<time>2009-09-06T09:46:49.000Z</time>
				<speed>0.000000</speed>
			</trkpt>
			<trkpt lat="49.375490000000" lon="11.347070000000">
				<ele>416.000000</ele>
				<time>2009-09-06T09:46:59.000Z</time>
				<speed>0.000000</speed>
			</trkpt>
			<trkpt lat="49.375380000000" lon="11.347080000000">
				<ele>426.000000</ele>
				<time>2009-09-06T09:47:16.000Z</time>
				<speed>0.000000</speed>
			</trkpt>
			<trkpt lat="49.375350000000" lon="11.347080000000">
				<ele>439.000000</ele>
				<time>2009-09-06T09:47:38.000Z</time>
				<speed>0.000000</speed>
			</trkpt>
			<trkpt lat="49.375320000000" lon="11.346950000000">
				<ele>442.000000</ele>
				<time>2009-09-06T09:47:47.000Z</time>
				<speed>0.000000</speed>
			</trkpt>
			<trkpt lat="49.375400000000" lon="11.346950000000">
				<ele>447.000000</ele>
				<time>2009-09-06T09:48:19.000Z</time>
				<speed>0.000000</speed>
			</trkpt>
			<trkpt lat="49.375470000000" lon="11.347020000000">
				<ele>430.000000</ele>
				<time>2009-09-06T09:48:34.000Z</time>
				<speed>0.000000</speed>
			</trkpt>
			<trkpt lat="49.375370000000" lon="11.347300000000">
				<ele>447.000000</ele>
				<time>2009-09-06T09:49:23.000Z</time>
				<speed>0.000000</speed>
			</trkpt>
			<trkpt lat="49.375320000000" lon="11.347220000000">
				<ele>426.000000</ele>
				<time>2009-09-06T09:49:35.000Z</time>
				<speed>0.000000</speed>
			</trkpt>
			<trkpt lat="49.375310000000" lon="11.347300000000">
				<ele>413.000000</ele>
				<time>2009-09-06T09:50:11.000Z</time>
				<speed>0.000000</speed>
			</trkpt>
			<trkpt lat="49.375350000000" lon="11.347390000000">
				<ele>409.000000</ele>
				<time>2009-09-06T09:50:23.000Z</time>
				<speed>0.000000</speed>
			</trkpt>
			<trkpt lat="49.375400000000" lon="11.347460000000">
				<ele>404.000000</ele>
				<time>2009-09-06T09:50:30.000Z</time>
				<speed>0.000000</speed>
			</trkpt>
			<trkpt lat="49.375450000000" lon="11.347510000000">
				<ele>403.000000</ele>
				<time>2009-09-06T09:50:43.000Z</time>
				<speed>0.000000</speed>
			</trkpt>
			<trkpt lat="49.375440000000" lon="11.347550000000">
				<ele>400.000000</ele>
				<time>2009-09-06T09:50:50.000Z</time>
				<speed>0.000000</speed>
			</trkpt>
			<trkpt lat="49.375240000000" lon="11.347550000000">
				<ele>412.000000</ele>
				<time>2009-09-06T09:51:19.000Z</time>
				<speed>0.000000</speed>
			</trkpt>
			<trkpt lat="49.375090000000" lon="11.347600000000">
				<ele>410.000000</ele>
				<time>2009-09-06T09:51:38.000Z</time>
				<speed>0.000000</speed>
			</trkpt>
			<trkpt lat="49.375000000000" lon="11.347650000000">
				<ele>402.000000</ele>
				<time>2009-09-06T09:51:48.000Z</time>
				<speed>0.000000</speed>
			</trkpt>
			<trkpt lat="49.374630000000" lon="11.347840000000">
				<ele>404.000000</ele>
				<time>2009-09-06T09:52:32.000Z</time>
				<speed>0.000000</speed>
			</trkpt>
			<trkpt lat="49.374580000000" lon="11.347880000000">
				<ele>404.000000</ele>
				<time>2009-09-06T09:52:37.000Z</time>
				<speed>0.000000</speed>
			</trkpt>
			<trkpt lat="49.374490000000" lon="11.347940000000">
				<ele>401.000000</ele>
				<time>2009-09-06T09:52:48.000Z</time>
				<speed>0.000000</speed>
			</trkpt>
			<trkpt lat="49.374180000000" lon="11.348080000000">
				<ele>387.000000</ele>
				<time>2009-09-06T09:53:24.000Z</time>
				<speed>0.000000</speed>
			</trkpt>
			<trkpt lat="49.374090000000" lon="11.348140000000">
				<ele>383.000000</ele>
				<time>2009-09-06T09:53:33.000Z</time>
				<speed>0.000000</speed>
			</trkpt>
			<trkpt lat="49.374030000000" lon="11.348180000000">
				<ele>385.000000</ele>
				<time>2009-09-06T09:53:40.000Z</time>
				<speed>0.000000</speed>
			</trkpt>
			<trkpt lat="49.373930000000" lon="11.348200000000">
				<ele>387.000000</ele>
				<time>2009-09-06T09:53:50.000Z</time>
				<speed>0.000000</speed>
			</trkpt>
			<trkpt lat="49.373810000000" lon="11.348250000000">
				<ele>388.000000</ele>
				<time>2009-09-06T09:54:03.000Z</time>
				<speed>0.000000</speed>
			</trkpt>
			<trkpt lat="49.373740000000" lon="11.348260000000">
				<ele>389.000000</ele>
				<time>2009-09-06T09:54:12.000Z</time>
				<speed>0.000000</speed>
			</trkpt>
			<trkpt lat="49.373690000000" lon="11.348310000000">
				<ele>382.000000</ele>
				<time>2009-09-06T09:54:22.000Z</time>
				<speed>0.000000</speed>
			</trkpt>
			<trkpt lat="49.373600000000" lon="11.348380000000">
				<ele>379.000000</ele>
				<time>2009-09-06T09:54:34.000Z</time>
				<speed>0.000000</speed>
			</trkpt>
			<trkpt lat="49.373550000000" lon="11.348400000000">
				<ele>379.000000</ele>
				<time>2009-09-06T09:54:39.000Z</time>
				<speed>0.000000</speed>
			</trkpt>
			<trkpt lat="49.373320000000" lon="11.348440000000">
				<ele>388.000000</ele>
				<time>2009-09-06T09:55:02.000Z</time>
				<speed>0.000000</speed>
			</trkpt>
			<trkpt lat="49.373210000000" lon="11.348490000000">
				<ele>391.000000</ele>
				<time>2009-09-06T09:55:15.000Z</time>
				<speed>0.000000</speed>
			</trkpt>
			<trkpt lat="49.373110000000" lon="11.348570000000">
				<ele>390.000000</ele>
				<time>2009-09-06T09:55:28.000Z</time>
				<speed>0.000000</speed>
			</trkpt>
			<trkpt lat="49.373070000000" lon="11.348610000000">
				<ele>390.000000</ele>
				<time>2009-09-06T09:55:38.000Z</time>
				<speed>0.000000</speed>
			</trkpt>
			<trkpt lat="49.373020000000" lon="11.348650000000">
				<ele>388.000000</ele>
				<time>2009-09-06T09:55:47.000Z</time>
				<speed>0.000000</speed>
			</trkpt>
			<trkpt lat="49.372910000000" lon="11.348710000000">
				<ele>388.000000</ele>
				<time>2009-09-06T09:56:03.000Z</time>
				<speed>0.000000</speed>
			</trkpt>
			<trkpt lat="49.372680000000" lon="11.348860000000">
				<ele>380.000000</ele>
				<time>2009-09-06T09:56:36.000Z</time>
				<speed>0.000000</speed>
			</trkpt>
			<trkpt lat="49.372610000000" lon="11.348940000000">
				<ele>383.000000</ele>
				<time>2009-09-06T09:56:46.000Z</time>
				<speed>0.000000</speed>
			</trkpt>
			<trkpt lat="49.372460000000" lon="11.349170000000">
				<ele>385.000000</ele>
				<time>2009-09-06T09:57:06.000Z</time>
				<speed>0.000000</speed>
			</trkpt>
			<trkpt lat="49.372440000000" lon="11.349230000000">
				<ele>378.000000</ele>
				<time>2009-09-06T09:57:13.000Z</time>
				<speed>0.000000</speed>
			</trkpt>
			<trkpt lat="49.372430000000" lon="11.349440000000">
				<ele>370.000000</ele>
				<time>2009-09-06T09:57:27.000Z</time>
				<speed>0.000000</speed>
			</trkpt>
			<trkpt lat="49.372410000000" lon="11.349600000000">
				<ele>368.000000</ele>
				<time>2009-09-06T09:57:38.000Z</time>
				<speed>0.000000</speed>
			</trkpt>
			<trkpt lat="49.372390000000" lon="11.349710000000">
				<ele>369.000000</ele>
				<time>2009-09-06T09:57:45.000Z</time>
				<speed>0.000000</speed>
			</trkpt>
			<trkpt lat="49.372330000000" lon="11.349710000000">
				<ele>369.000000</ele>
				<time>2009-09-06T09:57:53.000Z</time>
				<speed>0.000000</speed>
			</trkpt>
			<trkpt lat="49.372260000000" lon="11.349640000000">
				<ele>370.000000</ele>
				<time>2009-09-06T09:58:02.000Z</time>
				<speed>0.000000</speed>
			</trkpt>
			<trkpt lat="49.372180000000" lon="11.349520000000">
				<ele>373.000000</ele>
				<time>2009-09-06T09:58:15.000Z</time>
				<speed>0.000000</speed>
			</trkpt>
			<trkpt lat="49.372080000000" lon="11.349450000000">
				<ele>373.000000</ele>
				<time>2009-09-06T09:58:28.000Z</time>
				<speed>0.000000</speed>
			</trkpt>
			<trkpt lat="49.371930000000" lon="11.349440000000">
				<ele>369.000000</ele>
				<time>2009-09-06T09:58:41.000Z</time>
				<speed>0.000000</speed>
			</trkpt>
			<trkpt lat="49.371860000000" lon="11.349350000000">
				<ele>369.000000</ele>
				<time>2009-09-06T09:58:58.000Z</time>
				<speed>0.000000</speed>
			</trkpt>
			<trkpt lat="49.371840000000" lon="11.349240000000">
				<ele>370.000000</ele>
				<time>2009-09-06T09:59:10.000Z</time>
				<speed>0.000000</speed>
			</trkpt>
			<trkpt lat="49.371830000000" lon="11.349160000000">
				<ele>370.000000</ele>
				<time>2009-09-06T09:59:16.000Z</time>
				<speed>0.000000</speed>
			</trkpt>
			<trkpt lat="49.371800000000" lon="11.349000000000">
				<ele>372.000000</ele>
				<time>2009-09-06T09:59:30.000Z</time>
				<speed>0.000000</speed>
			</trkpt>
			<trkpt lat="49.371750000000" lon="11.348850000000">
				<ele>371.000000</ele>
				<time>2009-09-06T09:59:44.000Z</time>
				<speed>0.000000</speed>
			</trkpt>
			<trkpt lat="49.371730000000" lon="11.348860000000">
				<ele>365.000000</ele>
				<time>2009-09-06T10:00:39.000Z</time>
				<speed>0.000000</speed>
			</trkpt>
			<trkpt lat="49.371680000000" lon="11.348790000000">
				<ele>366.000000</ele>
				<time>2009-09-06T10:01:17.000Z</time>
				<speed>0.000000</speed>
			</trkpt>
			<trkpt lat="49.371600000000" lon="11.348760000000">
				<ele>365.000000</ele>
				<time>2009-09-06T10:01:28.000Z</time>
				<speed>0.000000</speed>
			</trkpt>
			<trkpt lat="49.371540000000" lon="11.348740000000">
				<ele>362.000000</ele>
				<time>2009-09-06T10:01:35.000Z</time>
				<speed>0.000000</speed>
			</trkpt>
			<trkpt lat="49.371400000000" lon="11.348640000000">
				<ele>363.000000</ele>
				<time>2009-09-06T10:01:50.000Z</time>
				<speed>0.000000</speed>
			</trkpt>
			<trkpt lat="49.371350000000" lon="11.348580000000">
				<ele>364.000000</ele>
				<time>2009-09-06T10:01:56.000Z</time>
				<speed>0.000000</speed>
			</trkpt>
			<trkpt lat="49.371000000000" lon="11.348160000000">
				<ele>361.000000</ele>
				<time>2009-09-06T10:02:40.000Z</time>
				<speed>0.000000</speed>
			</trkpt>
			<trkpt lat="49.370990000000" lon="11.348140000000">
				<ele>361.000000</ele>
				<time>2009-09-06T10:02:41.000Z</time>
				<speed>0.000000</speed>
			</trkpt>
			<trkpt lat="49.370930000000" lon="11.348050000000">
				<ele>363.000000</ele>
				<time>2009-09-06T10:02:49.000Z</time>
				<speed>0.000000</speed>
			</trkpt>
			<trkpt lat="49.370890000000" lon="11.347980000000">
				<ele>363.000000</ele>
				<time>2009-09-06T10:02:55.000Z</time>
				<speed>0.000000</speed>
			</trkpt>
			<trkpt lat="49.370720000000" lon="11.347680000000">
				<ele>366.000000</ele>
				<time>2009-09-06T10:03:20.000Z</time>
				<speed>0.000000</speed>
			</trkpt>
			<trkpt lat="49.370660000000" lon="11.347680000000">
				<ele>366.000000</ele>
				<time>2009-09-06T10:03:28.000Z</time>
				<speed>0.000000</speed>
			</trkpt>
			<trkpt lat="49.370560000000" lon="11.347750000000">
				<ele>367.000000</ele>
				<time>2009-09-06T10:03:40.000Z</time>
				<speed>0.000000</speed>
			</trkpt>
			<trkpt lat="49.370470000000" lon="11.347910000000">
				<ele>364.000000</ele>
				<time>2009-09-06T10:03:55.000Z</time>
				<speed>0.000000</speed>
			</trkpt>
			<trkpt lat="49.370460000000" lon="11.347990000000">
				<ele>365.000000</ele>
				<time>2009-09-06T10:04:01.000Z</time>
				<speed>0.000000</speed>
			</trkpt>
			<trkpt lat="49.370520000000" lon="11.348150000000">
				<ele>367.000000</ele>
				<time>2009-09-06T10:04:15.000Z</time>
				<speed>0.000000</speed>
			</trkpt>
			<trkpt lat="49.370570000000" lon="11.348240000000">
				<ele>363.000000</ele>
				<time>2009-09-06T10:04:24.000Z</time>
				<speed>0.000000</speed>
			</trkpt>
			<trkpt lat="49.370570000000" lon="11.348330000000">
				<ele>363.000000</ele>
				<time>2009-09-06T10:04:29.000Z</time>
				<speed>0.000000</speed>
			</trkpt>
			<trkpt lat="49.370570000000" lon="11.348420000000">
				<ele>366.000000</ele>
				<time>2009-09-06T10:04:35.000Z</time>
				<speed>0.000000</speed>
			</trkpt>
			<trkpt lat="49.370650000000" lon="11.348680000000">
				<ele>370.000000</ele>
				<time>2009-09-06T10:04:59.000Z</time>
				<speed>0.000000</speed>
			</trkpt>
			<trkpt lat="49.370680000000" lon="11.348800000000">
				<ele>369.000000</ele>
				<time>2009-09-06T10:05:09.000Z</time>
				<speed>0.000000</speed>
			</trkpt>
			<trkpt lat="49.370710000000" lon="11.349010000000">
				<ele>368.000000</ele>
				<time>2009-09-06T10:05:28.000Z</time>
				<speed>0.000000</speed>
			</trkpt>
			<trkpt lat="49.370680000000" lon="11.349130000000">
				<ele>372.000000</ele>
				<time>2009-09-06T10:05:36.000Z</time>
				<speed>0.000000</speed>
			</trkpt>
			<trkpt lat="49.370660000000" lon="11.349210000000">
				<ele>374.000000</ele>
				<time>2009-09-06T10:05:39.000Z</time>
				<speed>0.000000</speed>
			</trkpt>
			<trkpt lat="49.370620000000" lon="11.349290000000">
				<ele>377.000000</ele>
				<time>2009-09-06T10:05:46.000Z</time>
				<speed>0.000000</speed>
			</trkpt>
			<trkpt lat="49.370610000000" lon="11.349370000000">
				<ele>377.000000</ele>
				<time>2009-09-06T10:05:55.000Z</time>
				<speed>0.000000</speed>
			</trkpt>
			<trkpt lat="49.370600000000" lon="11.349470000000">
				<ele>374.000000</ele>
				<time>2009-09-06T10:06:03.000Z</time>
				<speed>0.000000</speed>
			</trkpt>
			<trkpt lat="49.370590000000" lon="11.349650000000">
				<ele>371.000000</ele>
				<time>2009-09-06T10:06:18.000Z</time>
				<speed>0.000000</speed>
			</trkpt>
			<trkpt lat="49.370560000000" lon="11.349770000000">
				<ele>367.000000</ele>
				<time>2009-09-06T10:06:28.000Z</time>
				<speed>0.000000</speed>
			</trkpt>
			<trkpt lat="49.370550000000" lon="11.349930000000">
				<ele>369.000000</ele>
				<time>2009-09-06T10:06:40.000Z</time>
				<speed>0.000000</speed>
			</trkpt>
			<trkpt lat="49.370560000000" lon="11.350080000000">
				<ele>375.000000</ele>
				<time>2009-09-06T10:06:54.000Z</time>
				<speed>0.000000</speed>
			</trkpt>
			<trkpt lat="49.370560000000" lon="11.350160000000">
				<ele>377.000000</ele>
				<time>2009-09-06T10:07:03.000Z</time>
				<speed>0.000000</speed>
			</trkpt>
			<trkpt lat="49.370590000000" lon="11.350230000000">
				<ele>376.000000</ele>
				<time>2009-09-06T10:07:08.000Z</time>
				<speed>0.000000</speed>
			</trkpt>
			<trkpt lat="49.370640000000" lon="11.350360000000">
				<ele>380.000000</ele>
				<time>2009-09-06T10:07:20.000Z</time>
				<speed>0.000000</speed>
			</trkpt>
			<trkpt lat="49.370690000000" lon="11.350580000000">
				<ele>379.000000</ele>
				<time>2009-09-06T10:07:36.000Z</time>
				<speed>0.000000</speed>
			</trkpt>
			<trkpt lat="49.370720000000" lon="11.350660000000">
				<ele>376.000000</ele>
				<time>2009-09-06T10:07:42.000Z</time>
				<speed>0.000000</speed>
			</trkpt>
			<trkpt lat="49.370800000000" lon="11.350790000000">
				<ele>373.000000</ele>
				<time>2009-09-06T10:07:54.000Z</time>
				<speed>0.000000</speed>
			</trkpt>
			<trkpt lat="49.370990000000" lon="11.351030000000">
				<ele>372.000000</ele>
				<time>2009-09-06T10:08:20.000Z</time>
				<speed>0.000000</speed>
			</trkpt>
			<trkpt lat="49.371060000000" lon="11.351170000000">
				<ele>375.000000</ele>
				<time>2009-09-06T10:08:31.000Z</time>
				<speed>0.000000</speed>
			</trkpt>
			<trkpt lat="49.371070000000" lon="11.351260000000">
				<ele>373.000000</ele>
				<time>2009-09-06T10:08:39.000Z</time>
				<speed>0.000000</speed>
			</trkpt>
			<trkpt lat="49.371110000000" lon="11.351520000000">
				<ele>380.000000</ele>
				<time>2009-09-06T10:08:58.000Z</time>
				<speed>0.000000</speed>
			</trkpt>
			<trkpt lat="49.371110000000" lon="11.351610000000">
				<ele>381.000000</ele>
				<time>2009-09-06T10:09:03.000Z</time>
				<speed>0.000000</speed>
			</trkpt>
			<trkpt lat="49.371130000000" lon="11.351700000000">
				<ele>382.000000</ele>
				<time>2009-09-06T10:09:09.000Z</time>
				<speed>0.000000</speed>
			</trkpt>
			<trkpt lat="49.371150000000" lon="11.351790000000">
				<ele>380.000000</ele>
				<time>2009-09-06T10:09:15.000Z</time>
				<speed>0.000000</speed>
			</trkpt>
			<trkpt lat="49.371170000000" lon="11.351930000000">
				<ele>377.000000</ele>
				<time>2009-09-06T10:09:23.000Z</time>
				<speed>0.000000</speed>
			</trkpt>
			<trkpt lat="49.371170000000" lon="11.352020000000">
				<ele>376.000000</ele>
				<time>2009-09-06T10:09:29.000Z</time>
				<speed>0.000000</speed>
			</trkpt>
			<trkpt lat="49.371200000000" lon="11.352250000000">
				<ele>370.000000</ele>
				<time>2009-09-06T10:09:46.000Z</time>
				<speed>0.000000</speed>
			</trkpt>
			<trkpt lat="49.371230000000" lon="11.352630000000">
				<ele>376.000000</ele>
				<time>2009-09-06T10:10:22.000Z</time>
				<speed>0.000000</speed>
			</trkpt>
			<trkpt lat="49.371240000000" lon="11.352720000000">
				<ele>375.000000</ele>
				<time>2009-09-06T10:10:33.000Z</time>
				<speed>0.000000</speed>
			</trkpt>
			<trkpt lat="49.371200000000" lon="11.352750000000">
				<ele>395.000000</ele>
				<time>2009-09-06T10:10:58.000Z</time>
				<speed>0.000000</speed>
			</trkpt>
			<trkpt lat="49.371150000000" lon="11.352940000000">
				<ele>386.000000</ele>
				<time>2009-09-06T10:11:27.000Z</time>
				<speed>0.000000</speed>
			</trkpt>
			<trkpt lat="49.371160000000" lon="11.353010000000">
				<ele>384.000000</ele>
				<time>2009-09-06T10:11:35.000Z</time>
				<speed>0.000000</speed>
			</trkpt>
			<trkpt lat="49.371150000000" lon="11.353380000000">
				<ele>373.000000</ele>
				<time>2009-09-06T10:12:11.000Z</time>
				<speed>0.000000</speed>
			</trkpt>
			<trkpt lat="49.371140000000" lon="11.353480000000">
				<ele>372.000000</ele>
				<time>2009-09-06T10:12:18.000Z</time>
				<speed>0.000000</speed>
			</trkpt>
			<trkpt lat="49.371110000000" lon="11.353610000000">
				<ele>378.000000</ele>
				<time>2009-09-06T10:12:28.000Z</time>
				<speed>0.000000</speed>
			</trkpt>
			<trkpt lat="49.371060000000" lon="11.353710000000">
				<ele>381.000000</ele>
				<time>2009-09-06T10:12:37.000Z</time>
				<speed>0.000000</speed>
			</trkpt>
			<trkpt lat="49.371020000000" lon="11.353760000000">
				<ele>381.000000</ele>
				<time>2009-09-06T10:12:44.000Z</time>
				<speed>0.000000</speed>
			</trkpt>
			<trkpt lat="49.370900000000" lon="11.353990000000">
				<ele>367.000000</ele>
				<time>2009-09-06T10:13:06.000Z</time>
				<speed>0.000000</speed>
			</trkpt>
			<trkpt lat="49.370880000000" lon="11.354100000000">
				<ele>365.000000</ele>
				<time>2009-09-06T10:13:18.000Z</time>
				<speed>0.000000</speed>
			</trkpt>
			<trkpt lat="49.370880000000" lon="11.354210000000">
				<ele>373.000000</ele>
				<time>2009-09-06T10:13:35.000Z</time>
				<speed>0.000000</speed>
			</trkpt>
			<trkpt lat="49.370850000000" lon="11.354140000000">
				<ele>372.000000</ele>
				<time>2009-09-06T10:14:34.000Z</time>
				<speed>0.000000</speed>
			</trkpt>
			<trkpt lat="49.370790000000" lon="11.354210000000">
				<ele>377.000000</ele>
				<time>2009-09-06T10:14:49.000Z</time>
				<speed>0.000000</speed>
			</trkpt>
			<trkpt lat="49.370750000000" lon="11.354290000000">
				<ele>384.000000</ele>
				<time>2009-09-06T10:15:14.000Z</time>
				<speed>0.000000</speed>
			</trkpt>
			<trkpt lat="49.370670000000" lon="11.354430000000">
				<ele>385.000000</ele>
				<time>2009-09-06T10:15:26.000Z</time>
				<speed>0.000000</speed>
			</trkpt>
			<trkpt lat="49.370620000000" lon="11.354490000000">
				<ele>386.000000</ele>
				<time>2009-09-06T10:15:33.000Z</time>
				<speed>0.000000</speed>
			</trkpt>
			<trkpt lat="49.370570000000" lon="11.354560000000">
				<ele>387.000000</ele>
				<time>2009-09-06T10:15:39.000Z</time>
				<speed>0.000000</speed>
			</trkpt>
			<trkpt lat="49.370520000000" lon="11.354620000000">
				<ele>385.000000</ele>
				<time>2009-09-06T10:15:45.000Z</time>
				<speed>0.000000</speed>
			</trkpt>
			<trkpt lat="49.370350000000" lon="11.354800000000">
				<ele>371.000000</ele>
				<time>2009-09-06T10:16:03.000Z</time>
				<speed>0.000000</speed>
			</trkpt>
			<trkpt lat="49.370340000000" lon="11.354870000000">
				<ele>373.000000</ele>
				<time>2009-09-06T10:16:10.000Z</time>
				<speed>0.000000</speed>
			</trkpt>
			<trkpt lat="49.370300000000" lon="11.354920000000">
				<ele>378.000000</ele>
				<time>2009-09-06T10:16:18.000Z</time>
				<speed>0.000000</speed>
			</trkpt>
			<trkpt lat="49.370220000000" lon="11.354970000000">
				<ele>386.000000</ele>
				<time>2009-09-06T10:16:26.000Z</time>
				<speed>0.000000</speed>
			</trkpt>
			<trkpt lat="49.369940000000" lon="11.355200000000">
				<ele>391.000000</ele>
				<time>2009-09-06T10:16:58.000Z</time>
				<speed>0.000000</speed>
			</trkpt>
			<trkpt lat="49.369900000000" lon="11.355370000000">
				<ele>388.000000</ele>
				<time>2009-09-06T10:17:12.000Z</time>
				<speed>0.000000</speed>
			</trkpt>
			<trkpt lat="49.369870000000" lon="11.355460000000">
				<ele>388.000000</ele>
				<time>2009-09-06T10:17:19.000Z</time>
				<speed>0.000000</speed>
			</trkpt>
			<trkpt lat="49.369830000000" lon="11.355530000000">
				<ele>386.000000</ele>
				<time>2009-09-06T10:17:27.000Z</time>
				<speed>0.000000</speed>
			</trkpt>
			<trkpt lat="49.369810000000" lon="11.355610000000">
				<ele>383.000000</ele>
				<time>2009-09-06T10:17:32.000Z</time>
				<speed>0.000000</speed>
			</trkpt>
			<trkpt lat="49.369620000000" lon="11.355930000000">
				<ele>384.000000</ele>
				<time>2009-09-06T10:18:02.000Z</time>
				<speed>0.000000</speed>
			</trkpt>
			<trkpt lat="49.369590000000" lon="11.356010000000">
				<ele>383.000000</ele>
				<time>2009-09-06T10:18:06.000Z</time>
				<speed>0.000000</speed>
			</trkpt>
			<trkpt lat="49.369530000000" lon="11.356170000000">
				<ele>376.000000</ele>
				<time>2009-09-06T10:18:14.000Z</time>
				<speed>0.000000</speed>
			</trkpt>
			<trkpt lat="49.369530000000" lon="11.356250000000">
				<ele>374.000000</ele>
				<time>2009-09-06T10:18:18.000Z</time>
				<speed>0.000000</speed>
			</trkpt>
			<trkpt lat="49.369510000000" lon="11.356420000000">
				<ele>371.000000</ele>
				<time>2009-09-06T10:18:26.000Z</time>
				<speed>0.000000</speed>
			</trkpt>
			<trkpt lat="49.369480000000" lon="11.356510000000">
				<ele>368.000000</ele>
				<time>2009-09-06T10:18:30.000Z</time>
				<speed>0.000000</speed>
			</trkpt>
			<trkpt lat="49.369460000000" lon="11.356590000000">
				<ele>366.000000</ele>
				<time>2009-09-06T10:18:34.000Z</time>
				<speed>0.000000</speed>
			</trkpt>
			<trkpt lat="49.369510000000" lon="11.356710000000">
				<ele>366.000000</ele>
				<time>2009-09-06T10:18:42.000Z</time>
				<speed>0.000000</speed>
			</trkpt>
			<trkpt lat="49.369520000000" lon="11.356860000000">
				<ele>363.000000</ele>
				<time>2009-09-06T10:18:51.000Z</time>
				<speed>0.000000</speed>
			</trkpt>
			<trkpt lat="49.369540000000" lon="11.356940000000">
				<ele>359.000000</ele>
				<time>2009-09-06T10:18:57.000Z</time>
				<speed>0.000000</speed>
			</trkpt>
			<trkpt lat="49.369600000000" lon="11.357040000000">
				<ele>357.000000</ele>
				<time>2009-09-06T10:19:05.000Z</time>
				<speed>0.000000</speed>
			</trkpt>
			<trkpt lat="49.369630000000" lon="11.357150000000">
				<ele>359.000000</ele>
				<time>2009-09-06T10:19:12.000Z</time>
				<speed>0.000000</speed>
			</trkpt>
			<trkpt lat="49.369630000000" lon="11.357290000000">
				<ele>363.000000</ele>
				<time>2009-09-06T10:19:19.000Z</time>
				<speed>0.000000</speed>
			</trkpt>
			<trkpt lat="49.369650000000" lon="11.357500000000">
				<ele>380.000000</ele>
				<time>2009-09-06T10:19:37.000Z</time>
				<speed>0.000000</speed>
			</trkpt>
			<trkpt lat="49.369650000000" lon="11.357670000000">
				<ele>380.000000</ele>
				<time>2009-09-06T10:19:50.000Z</time>
				<speed>0.000000</speed>
			</trkpt>
			<trkpt lat="49.369630000000" lon="11.357810000000">
				<ele>377.000000</ele>
				<time>2009-09-06T10:19:59.000Z</time>
				<speed>0.000000</speed>
			</trkpt>
			<trkpt lat="49.369630000000" lon="11.358120000000">
				<ele>371.000000</ele>
				<time>2009-09-06T10:20:22.000Z</time>
				<speed>0.000000</speed>
			</trkpt>
			<trkpt lat="49.369640000000" lon="11.358200000000">
				<ele>372.000000</ele>
				<time>2009-09-06T10:20:27.000Z</time>
				<speed>0.000000</speed>
			</trkpt>
			<trkpt lat="49.369670000000" lon="11.358360000000">
				<ele>375.000000</ele>
				<time>2009-09-06T10:20:37.000Z</time>
				<speed>0.000000</speed>
			</trkpt>
			<trkpt lat="49.369670000000" lon="11.358460000000">
				<ele>377.000000</ele>
				<time>2009-09-06T10:20:43.000Z</time>
				<speed>0.000000</speed>
			</trkpt>
			<trkpt lat="49.369660000000" lon="11.358660000000">
				<ele>380.000000</ele>
				<time>2009-09-06T10:20:54.000Z</time>
				<speed>0.000000</speed>
			</trkpt>
			<trkpt lat="49.369660000000" lon="11.358740000000">
				<ele>381.000000</ele>
				<time>2009-09-06T10:21:00.000Z</time>
				<speed>0.000000</speed>
			</trkpt>
			<trkpt lat="49.369660000000" lon="11.358830000000">
				<ele>382.000000</ele>
				<time>2009-09-06T10:21:07.000Z</time>
				<speed>0.000000</speed>
			</trkpt>
			<trkpt lat="49.369620000000" lon="11.358940000000">
				<ele>374.000000</ele>
				<time>2009-09-06T10:21:14.000Z</time>
				<speed>0.000000</speed>
			</trkpt>
			<trkpt lat="49.369610000000" lon="11.359030000000">
				<ele>370.000000</ele>
				<time>2009-09-06T10:21:19.000Z</time>
				<speed>0.000000</speed>
			</trkpt>
			<trkpt lat="49.369600000000" lon="11.359160000000">
				<ele>366.000000</ele>
				<time>2009-09-06T10:21:28.000Z</time>
				<speed>0.000000</speed>
			</trkpt>
			<trkpt lat="49.369590000000" lon="11.359230000000">
				<ele>368.000000</ele>
				<time>2009-09-06T10:21:35.000Z</time>
				<speed>0.000000</speed>
			</trkpt>
			<trkpt lat="49.369590000000" lon="11.359320000000">
				<ele>371.000000</ele>
				<time>2009-09-06T10:21:41.000Z</time>
				<speed>0.000000</speed>
			</trkpt>
			<trkpt lat="49.369560000000" lon="11.359430000000">
				<ele>366.000000</ele>
				<time>2009-09-06T10:21:47.000Z</time>
				<speed>0.000000</speed>
			</trkpt>
			<trkpt lat="49.369550000000" lon="11.359580000000">
				<ele>363.000000</ele>
				<time>2009-09-06T10:21:55.000Z</time>
				<speed>0.000000</speed>
			</trkpt>
			<trkpt lat="49.369590000000" lon="11.359640000000">
				<ele>364.000000</ele>
				<time>2009-09-06T10:22:00.000Z</time>
				<speed>0.000000</speed>
			</trkpt>
			<trkpt lat="49.369610000000" lon="11.359750000000">
				<ele>369.000000</ele>
				<time>2009-09-06T10:22:06.000Z</time>
				<speed>0.000000</speed>
			</trkpt>
			<trkpt lat="49.369660000000" lon="11.360000000000">
				<ele>379.000000</ele>
				<time>2009-09-06T10:22:21.000Z</time>
				<speed>0.000000</speed>
			</trkpt>
			<trkpt lat="49.369660000000" lon="11.360080000000">
				<ele>379.000000</ele>
				<time>2009-09-06T10:22:27.000Z</time>
				<speed>0.000000</speed>
			</trkpt>
			<trkpt lat="49.369630000000" lon="11.360200000000">
				<ele>377.000000</ele>
				<time>2009-09-06T10:22:34.000Z</time>
				<speed>0.000000</speed>
			</trkpt>
			<trkpt lat="49.369580000000" lon="11.360350000000">
				<ele>375.000000</ele>
				<time>2009-09-06T10:22:44.000Z</time>
				<speed>0.000000</speed>
			</trkpt>
			<trkpt lat="49.369570000000" lon="11.360480000000">
				<ele>376.000000</ele>
				<time>2009-09-06T10:22:55.000Z</time>
				<speed>0.000000</speed>
			</trkpt>
			<trkpt lat="49.369550000000" lon="11.360560000000">
				<ele>374.000000</ele>
				<time>2009-09-06T10:23:00.000Z</time>
				<speed>0.000000</speed>
			</trkpt>
			<trkpt lat="49.369510000000" lon="11.360620000000">
				<ele>373.000000</ele>
				<time>2009-09-06T10:23:05.000Z</time>
				<speed>0.000000</speed>
			</trkpt>
			<trkpt lat="49.369510000000" lon="11.360700000000">
				<ele>375.000000</ele>
				<time>2009-09-06T10:23:12.000Z</time>
				<speed>0.000000</speed>
			</trkpt>
			<trkpt lat="49.369460000000" lon="11.360800000000">
				<ele>369.000000</ele>
				<time>2009-09-06T10:23:19.000Z</time>
				<speed>0.000000</speed>
			</trkpt>
			<trkpt lat="49.369460000000" lon="11.360880000000">
				<ele>369.000000</ele>
				<time>2009-09-06T10:23:24.000Z</time>
				<speed>0.000000</speed>
			</trkpt>
			<trkpt lat="49.369460000000" lon="11.360960000000">
				<ele>371.000000</ele>
				<time>2009-09-06T10:23:28.000Z</time>
				<speed>0.000000</speed>
			</trkpt>
			<trkpt lat="49.369450000000" lon="11.361040000000">
				<ele>373.000000</ele>
				<time>2009-09-06T10:23:32.000Z</time>
				<speed>0.000000</speed>
			</trkpt>
			<trkpt lat="49.369430000000" lon="11.361290000000">
				<ele>375.000000</ele>
				<time>2009-09-06T10:23:46.000Z</time>
				<speed>0.000000</speed>
			</trkpt>
			<trkpt lat="49.369400000000" lon="11.361440000000">
				<ele>371.000000</ele>
				<time>2009-09-06T10:23:55.000Z</time>
				<speed>0.000000</speed>
			</trkpt>
			<trkpt lat="49.369400000000" lon="11.361520000000">
				<ele>372.000000</ele>
				<time>2009-09-06T10:24:01.000Z</time>
				<speed>0.000000</speed>
			</trkpt>
			<trkpt lat="49.369400000000" lon="11.361600000000">
				<ele>374.000000</ele>
				<time>2009-09-06T10:24:06.000Z</time>
				<speed>0.000000</speed>
			</trkpt>
			<trkpt lat="49.369430000000" lon="11.361680000000">
				<ele>376.000000</ele>
				<time>2009-09-06T10:24:12.000Z</time>
				<speed>0.000000</speed>
			</trkpt>
			<trkpt lat="49.369460000000" lon="11.361790000000">
				<ele>376.000000</ele>
				<time>2009-09-06T10:24:19.000Z</time>
				<speed>0.000000</speed>
			</trkpt>
			<trkpt lat="49.369450000000" lon="11.361970000000">
				<ele>373.000000</ele>
				<time>2009-09-06T10:24:29.000Z</time>
				<speed>0.000000</speed>
			</trkpt>
			<trkpt lat="49.369440000000" lon="11.362220000000">
				<ele>372.000000</ele>
				<time>2009-09-06T10:24:45.000Z</time>
				<speed>0.000000</speed>
			</trkpt>
			<trkpt lat="49.369460000000" lon="11.362430000000">
				<ele>389.000000</ele>
				<time>2009-09-06T10:25:07.000Z</time>
				<speed>0.000000</speed>
			</trkpt>
			<trkpt lat="49.369440000000" lon="11.362520000000">
				<ele>389.000000</ele>
				<time>2009-09-06T10:25:13.000Z</time>
				<speed>0.000000</speed>
			</trkpt>
			<trkpt lat="49.369360000000" lon="11.362640000000">
				<ele>387.000000</ele>
				<time>2009-09-06T10:25:21.000Z</time>
				<speed>0.000000</speed>
			</trkpt>
			<trkpt lat="49.369350000000" lon="11.362730000000">
				<ele>388.000000</ele>
				<time>2009-09-06T10:25:25.000Z</time>
				<speed>0.000000</speed>
			</trkpt>
			<trkpt lat="49.369340000000" lon="11.362810000000">
				<ele>389.000000</ele>
				<time>2009-09-06T10:25:30.000Z</time>
				<speed>0.000000</speed>
			</trkpt>
			<trkpt lat="49.369350000000" lon="11.362890000000">
				<ele>390.000000</ele>
				<time>2009-09-06T10:25:36.000Z</time>
				<speed>0.000000</speed>
			</trkpt>
			<trkpt lat="49.369350000000" lon="11.362980000000">
				<ele>390.000000</ele>
				<time>2009-09-06T10:25:41.000Z</time>
				<speed>0.000000</speed>
			</trkpt>
			<trkpt lat="49.369380000000" lon="11.363140000000">
				<ele>387.000000</ele>
				<time>2009-09-06T10:25:51.000Z</time>
				<speed>0.000000</speed>
			</trkpt>
			<trkpt lat="49.369350000000" lon="11.363230000000">
				<ele>384.000000</ele>
				<time>2009-09-06T10:25:59.000Z</time>
				<speed>0.000000</speed>
			</trkpt>
			<trkpt lat="49.369350000000" lon="11.363320000000">
				<ele>378.000000</ele>
				<time>2009-09-06T10:26:05.000Z</time>
				<speed>0.000000</speed>
			</trkpt>
			<trkpt lat="49.369360000000" lon="11.363420000000">
				<ele>375.000000</ele>
				<time>2009-09-06T10:26:11.000Z</time>
				<speed>0.000000</speed>
			</trkpt>
			<trkpt lat="49.369380000000" lon="11.363500000000">
				<ele>375.000000</ele>
				<time>2009-09-06T10:26:15.000Z</time>
				<speed>0.000000</speed>
			</trkpt>
			<trkpt lat="49.369420000000" lon="11.363630000000">
				<ele>373.000000</ele>
				<time>2009-09-06T10:26:24.000Z</time>
				<speed>0.000000</speed>
			</trkpt>
			<trkpt lat="49.369370000000" lon="11.363820000000">
				<ele>376.000000</ele>
				<time>2009-09-06T10:26:37.000Z</time>
				<speed>0.000000</speed>
			</trkpt>
			<trkpt lat="49.369360000000" lon="11.363890000000">
				<ele>377.000000</ele>
				<time>2009-09-06T10:26:41.000Z</time>
				<speed>0.000000</speed>
			</trkpt>
			<trkpt lat="49.369330000000" lon="11.364010000000">
				<ele>381.000000</ele>
				<time>2009-09-06T10:26:48.000Z</time>
				<speed>0.000000</speed>
			</trkpt>
			<trkpt lat="49.369370000000" lon="11.364180000000">
				<ele>380.000000</ele>
				<time>2009-09-06T10:27:00.000Z</time>
				<speed>0.000000</speed>
			</trkpt>
			<trkpt lat="49.369400000000" lon="11.364250000000">
				<ele>381.000000</ele>
				<time>2009-09-06T10:27:05.000Z</time>
				<speed>0.000000</speed>
			</trkpt>
			<trkpt lat="49.369460000000" lon="11.364410000000">
				<ele>382.000000</ele>
				<time>2009-09-06T10:27:15.000Z</time>
				<speed>0.000000</speed>
			</trkpt>
			<trkpt lat="49.369490000000" lon="11.364490000000">
				<ele>381.000000</ele>
				<time>2009-09-06T10:27:20.000Z</time>
				<speed>0.000000</speed>
			</trkpt>
			<trkpt lat="49.369530000000" lon="11.364620000000">
				<ele>375.000000</ele>
				<time>2009-09-06T10:27:29.000Z</time>
				<speed>0.000000</speed>
			</trkpt>
			<trkpt lat="49.369520000000" lon="11.364700000000">
				<ele>370.000000</ele>
				<time>2009-09-06T10:27:35.000Z</time>
				<speed>0.000000</speed>
			</trkpt>
			<trkpt lat="49.369530000000" lon="11.364790000000">
				<ele>368.000000</ele>
				<time>2009-09-06T10:27:40.000Z</time>
				<speed>0.000000</speed>
			</trkpt>
			<trkpt lat="49.369550000000" lon="11.364870000000">
				<ele>365.000000</ele>
				<time>2009-09-06T10:27:45.000Z</time>
				<speed>0.000000</speed>
			</trkpt>
			<trkpt lat="49.369610000000" lon="11.364930000000">
				<ele>368.000000</ele>
				<time>2009-09-06T10:27:50.000Z</time>
				<speed>0.000000</speed>
			</trkpt>
			<trkpt lat="49.369680000000" lon="11.364970000000">
				<ele>375.000000</ele>
				<time>2009-09-06T10:27:54.000Z</time>
				<speed>0.000000</speed>
			</trkpt>
			<trkpt lat="49.369780000000" lon="11.365180000000">
				<ele>384.000000</ele>
				<time>2009-09-06T10:28:07.000Z</time>
				<speed>0.000000</speed>
			</trkpt>
			<trkpt lat="49.369790000000" lon="11.365300000000">
				<ele>380.000000</ele>
				<time>2009-09-06T10:28:16.000Z</time>
				<speed>0.000000</speed>
			</trkpt>
			<trkpt lat="49.369730000000" lon="11.365520000000">
				<ele>371.000000</ele>
				<time>2009-09-06T10:28:29.000Z</time>
				<speed>0.000000</speed>
			</trkpt>
			<trkpt lat="49.369730000000" lon="11.365610000000">
				<ele>371.000000</ele>
				<time>2009-09-06T10:28:35.000Z</time>
				<speed>0.000000</speed>
			</trkpt>
			<trkpt lat="49.369740000000" lon="11.365780000000">
				<ele>380.000000</ele>
				<time>2009-09-06T10:28:49.000Z</time>
				<speed>0.000000</speed>
			</trkpt>
			<trkpt lat="49.369770000000" lon="11.365840000000">
				<ele>383.000000</ele>
				<time>2009-09-06T10:28:55.000Z</time>
				<speed>0.000000</speed>
			</trkpt>
			<trkpt lat="49.369730000000" lon="11.365910000000">
				<ele>382.000000</ele>
				<time>2009-09-06T10:29:02.000Z</time>
				<speed>0.000000</speed>
			</trkpt>
			<trkpt lat="49.369690000000" lon="11.366030000000">
				<ele>379.000000</ele>
				<time>2009-09-06T10:29:09.000Z</time>
				<speed>0.000000</speed>
			</trkpt>
			<trkpt lat="49.369670000000" lon="11.366170000000">
				<ele>378.000000</ele>
				<time>2009-09-06T10:29:18.000Z</time>
				<speed>0.000000</speed>
			</trkpt>
			<trkpt lat="49.369660000000" lon="11.366260000000">
				<ele>378.000000</ele>
				<time>2009-09-06T10:29:24.000Z</time>
				<speed>0.000000</speed>
			</trkpt>
			<trkpt lat="49.369640000000" lon="11.366390000000">
				<ele>376.000000</ele>
				<time>2009-09-06T10:29:32.000Z</time>
				<speed>0.000000</speed>
			</trkpt>
			<trkpt lat="49.369560000000" lon="11.366740000000">
				<ele>375.000000</ele>
				<time>2009-09-06T10:29:55.000Z</time>
				<speed>0.000000</speed>
			</trkpt>
			<trkpt lat="49.369470000000" lon="11.366930000000">
				<ele>376.000000</ele>
				<time>2009-09-06T10:30:11.000Z</time>
				<speed>0.000000</speed>
			</trkpt>
			<trkpt lat="49.369390000000" lon="11.367110000000">
				<ele>380.000000</ele>
				<time>2009-09-06T10:30:28.000Z</time>
				<speed>0.000000</speed>
			</trkpt>
			<trkpt lat="49.369310000000" lon="11.367190000000">
				<ele>384.000000</ele>
				<time>2009-09-06T10:30:37.000Z</time>
				<speed>0.000000</speed>
			</trkpt>
			<trkpt lat="49.369220000000" lon="11.367310000000">
				<ele>391.000000</ele>
				<time>2009-09-06T10:30:50.000Z</time>
				<speed>0.000000</speed>
			</trkpt>
			<trkpt lat="49.369200000000" lon="11.367390000000">
				<ele>394.000000</ele>
				<time>2009-09-06T10:30:56.000Z</time>
				<speed>0.000000</speed>
			</trkpt>
			<trkpt lat="49.369170000000" lon="11.367500000000">
				<ele>398.000000</ele>
				<time>2009-09-06T10:31:04.000Z</time>
				<speed>0.000000</speed>
			</trkpt>
			<trkpt lat="49.369190000000" lon="11.367530000000">
				<ele>405.000000</ele>
				<time>2009-09-06T10:31:15.000Z</time>
				<speed>0.000000</speed>
			</trkpt>
			<trkpt lat="49.369240000000" lon="11.367470000000">
				<ele>418.000000</ele>
				<time>2009-09-06T10:31:25.000Z</time>
				<speed>0.000000</speed>
			</trkpt>
			<trkpt lat="49.369300000000" lon="11.367460000000">
				<ele>415.000000</ele>
				<time>2009-09-06T10:31:47.000Z</time>
				<speed>0.000000</speed>
			</trkpt>
			<trkpt lat="49.369190000000" lon="11.367530000000">
				<ele>409.000000</ele>
				<time>2009-09-06T10:31:55.000Z</time>
				<speed>0.000000</speed>
			</trkpt>
			<trkpt lat="49.369160000000" lon="11.367650000000">
				<ele>396.000000</ele>
				<time>2009-09-06T10:32:02.000Z</time>
				<speed>0.000000</speed>
			</trkpt>
			<trkpt lat="49.369130000000" lon="11.367720000000">
				<ele>390.000000</ele>
				<time>2009-09-06T10:32:06.000Z</time>
				<speed>0.000000</speed>
			</trkpt>
			<trkpt lat="49.369110000000" lon="11.367800000000">
				<ele>385.000000</ele>
				<time>2009-09-06T10:32:12.000Z</time>
				<speed>0.000000</speed>
			</trkpt>
			<trkpt lat="49.369080000000" lon="11.367900000000">
				<ele>383.000000</ele>
				<time>2009-09-06T10:32:18.000Z</time>
				<speed>0.000000</speed>
			</trkpt>
			<trkpt lat="49.369060000000" lon="11.367990000000">
				<ele>382.000000</ele>
				<time>2009-09-06T10:32:23.000Z</time>
				<speed>0.000000</speed>
			</trkpt>
			<trkpt lat="49.369020000000" lon="11.368090000000">
				<ele>383.000000</ele>
				<time>2009-09-06T10:32:30.000Z</time>
				<speed>0.000000</speed>
			</trkpt>
			<trkpt lat="49.368990000000" lon="11.368160000000">
				<ele>383.000000</ele>
				<time>2009-09-06T10:32:35.000Z</time>
				<speed>0.000000</speed>
			</trkpt>
			<trkpt lat="49.368960000000" lon="11.368250000000">
				<ele>383.000000</ele>
				<time>2009-09-06T10:32:40.000Z</time>
				<speed>0.000000</speed>
			</trkpt>
			<trkpt lat="49.368940000000" lon="11.368330000000">
				<ele>382.000000</ele>
				<time>2009-09-06T10:32:44.000Z</time>
				<speed>0.000000</speed>
			</trkpt>
			<trkpt lat="49.368920000000" lon="11.368400000000">
				<ele>382.000000</ele>
				<time>2009-09-06T10:32:49.000Z</time>
				<speed>0.000000</speed>
			</trkpt>
			<trkpt lat="49.368850000000" lon="11.368640000000">
				<ele>382.000000</ele>
				<time>2009-09-06T10:33:05.000Z</time>
				<speed>0.000000</speed>
			</trkpt>
			<trkpt lat="49.368770000000" lon="11.369030000000">
				<ele>382.000000</ele>
				<time>2009-09-06T10:33:31.000Z</time>
				<speed>0.000000</speed>
			</trkpt>
			<trkpt lat="49.368740000000" lon="11.369190000000">
				<ele>384.000000</ele>
				<time>2009-09-06T10:33:42.000Z</time>
				<speed>0.000000</speed>
			</trkpt>
			<trkpt lat="49.368740000000" lon="11.369300000000">
				<ele>384.000000</ele>
				<time>2009-09-06T10:33:50.000Z</time>
				<speed>0.000000</speed>
			</trkpt>
			<trkpt lat="49.368720000000" lon="11.369530000000">
				<ele>387.000000</ele>
				<time>2009-09-06T10:34:03.000Z</time>
				<speed>0.000000</speed>
			</trkpt>
			<trkpt lat="49.368730000000" lon="11.369620000000">
				<ele>388.000000</ele>
				<time>2009-09-06T10:34:09.000Z</time>
				<speed>0.000000</speed>
			</trkpt>
			<trkpt lat="49.368740000000" lon="11.369760000000">
				<ele>387.000000</ele>
				<time>2009-09-06T10:34:17.000Z</time>
				<speed>0.000000</speed>
			</trkpt>
			<trkpt lat="49.368720000000" lon="11.369980000000">
				<ele>383.000000</ele>
				<time>2009-09-06T10:34:33.000Z</time>
				<speed>0.000000</speed>
			</trkpt>
			<trkpt lat="49.368720000000" lon="11.370190000000">
				<ele>380.000000</ele>
				<time>2009-09-06T10:34:49.000Z</time>
				<speed>0.000000</speed>
			</trkpt>
			<trkpt lat="49.368710000000" lon="11.370280000000">
				<ele>378.000000</ele>
				<time>2009-09-06T10:34:54.000Z</time>
				<speed>0.000000</speed>
			</trkpt>
			<trkpt lat="49.368720000000" lon="11.370520000000">
				<ele>376.000000</ele>
				<time>2009-09-06T10:35:08.000Z</time>
				<speed>0.000000</speed>
			</trkpt>
			<trkpt lat="49.368710000000" lon="11.370610000000">
				<ele>374.000000</ele>
				<time>2009-09-06T10:35:14.000Z</time>
				<speed>0.000000</speed>
			</trkpt>
			<trkpt lat="49.368690000000" lon="11.370700000000">
				<ele>373.000000</ele>
				<time>2009-09-06T10:35:22.000Z</time>
				<speed>0.000000</speed>
			</trkpt>
			<trkpt lat="49.368640000000" lon="11.370900000000">
				<ele>373.000000</ele>
				<time>2009-09-06T10:35:39.000Z</time>
				<speed>0.000000</speed>
			</trkpt>
			<trkpt lat="49.368620000000" lon="11.370990000000">
				<ele>375.000000</ele>
				<time>2009-09-06T10:35:45.000Z</time>
				<speed>0.000000</speed>
			</trkpt>
			<trkpt lat="49.368610000000" lon="11.371080000000">
				<ele>377.000000</ele>
				<time>2009-09-06T10:35:51.000Z</time>
				<speed>0.000000</speed>
			</trkpt>
			<trkpt lat="49.368580000000" lon="11.371200000000">
				<ele>379.000000</ele>
				<time>2009-09-06T10:35:59.000Z</time>
				<speed>0.000000</speed>
			</trkpt>
			<trkpt lat="49.368550000000" lon="11.371430000000">
				<ele>380.000000</ele>
				<time>2009-09-06T10:36:17.000Z</time>
				<speed>0.000000</speed>
			</trkpt>
			<trkpt lat="49.368510000000" lon="11.371540000000">
				<ele>378.000000</ele>
				<time>2009-09-06T10:36:25.000Z</time>
				<speed>0.000000</speed>
			</trkpt>
			<trkpt lat="49.368450000000" lon="11.371650000000">
				<ele>370.000000</ele>
				<time>2009-09-06T10:36:32.000Z</time>
				<speed>0.000000</speed>
			</trkpt>
			<trkpt lat="49.368350000000" lon="11.371840000000">
				<ele>356.000000</ele>
				<time>2009-09-06T10:36:45.000Z</time>
				<speed>0.000000</speed>
			</trkpt>
			<trkpt lat="49.368420000000" lon="11.372000000000">
				<ele>368.000000</ele>
				<time>2009-09-06T10:36:55.000Z</time>
				<speed>0.000000</speed>
			</trkpt>
			<trkpt lat="49.368420000000" lon="11.372090000000">
				<ele>372.000000</ele>
				<time>2009-09-06T10:37:00.000Z</time>
				<speed>0.000000</speed>
			</trkpt>
			<trkpt lat="49.368420000000" lon="11.372280000000">
				<ele>376.000000</ele>
				<time>2009-09-06T10:37:12.000Z</time>
				<speed>0.000000</speed>
			</trkpt>
			<trkpt lat="49.368400000000" lon="11.372410000000">
				<ele>376.000000</ele>
				<time>2009-09-06T10:37:21.000Z</time>
				<speed>0.000000</speed>
			</trkpt>
			<trkpt lat="49.368380000000" lon="11.372760000000">
				<ele>376.000000</ele>
				<time>2009-09-06T10:37:45.000Z</time>
				<speed>0.000000</speed>
			</trkpt>
			<trkpt lat="49.368380000000" lon="11.372850000000">
				<ele>375.000000</ele>
				<time>2009-09-06T10:37:52.000Z</time>
				<speed>0.000000</speed>
			</trkpt>
			<trkpt lat="49.368350000000" lon="11.373010000000">
				<ele>376.000000</ele>
				<time>2009-09-06T10:38:03.000Z</time>
				<speed>0.000000</speed>
			</trkpt>
			<trkpt lat="49.368340000000" lon="11.373130000000">
				<ele>376.000000</ele>
				<time>2009-09-06T10:38:12.000Z</time>
				<speed>0.000000</speed>
			</trkpt>
			<trkpt lat="49.368260000000" lon="11.373320000000">
				<ele>378.000000</ele>
				<time>2009-09-06T10:38:27.000Z</time>
				<speed>0.000000</speed>
			</trkpt>
			<trkpt lat="49.368190000000" lon="11.373400000000">
				<ele>378.000000</ele>
				<time>2009-09-06T10:38:37.000Z</time>
				<speed>0.000000</speed>
			</trkpt>
			<trkpt lat="49.368030000000" lon="11.373640000000">
				<ele>377.000000</ele>
				<time>2009-09-06T10:39:02.000Z</time>
				<speed>0.000000</speed>
			</trkpt>
			<trkpt lat="49.367990000000" lon="11.373720000000">
				<ele>376.000000</ele>
				<time>2009-09-06T10:39:08.000Z</time>
				<speed>0.000000</speed>
			</trkpt>
			<trkpt lat="49.367950000000" lon="11.373810000000">
				<ele>377.000000</ele>
				<time>2009-09-06T10:39:18.000Z</time>
				<speed>0.000000</speed>
			</trkpt>
			<trkpt lat="49.367930000000" lon="11.373930000000">
				<ele>380.000000</ele>
				<time>2009-09-06T10:39:27.000Z</time>
				<speed>0.000000</speed>
			</trkpt>
			<trkpt lat="49.367900000000" lon="11.374060000000">
				<ele>378.000000</ele>
				<time>2009-09-06T10:39:35.000Z</time>
				<speed>0.000000</speed>
			</trkpt>
			<trkpt lat="49.367840000000" lon="11.374140000000">
				<ele>378.000000</ele>
				<time>2009-09-06T10:39:40.000Z</time>
				<speed>0.000000</speed>
			</trkpt>
			<trkpt lat="49.367810000000" lon="11.374210000000">
				<ele>378.000000</ele>
				<time>2009-09-06T10:39:44.000Z</time>
				<speed>0.000000</speed>
			</trkpt>
			<trkpt lat="49.367800000000" lon="11.374280000000">
				<ele>378.000000</ele>
				<time>2009-09-06T10:39:48.000Z</time>
				<speed>0.000000</speed>
			</trkpt>
			<trkpt lat="49.367780000000" lon="11.374360000000">
				<ele>378.000000</ele>
				<time>2009-09-06T10:39:56.000Z</time>
				<speed>0.000000</speed>
			</trkpt>
			<trkpt lat="49.367830000000" lon="11.374400000000">
				<ele>379.000000</ele>
				<time>2009-09-06T10:40:08.000Z</time>
				<speed>0.000000</speed>
			</trkpt>
			<trkpt lat="49.367900000000" lon="11.374510000000">
				<ele>375.000000</ele>
				<time>2009-09-06T10:40:26.000Z</time>
				<speed>0.000000</speed>
			</trkpt>
			<trkpt lat="49.367940000000" lon="11.374900000000">
				<ele>370.000000</ele>
				<time>2009-09-06T10:41:01.000Z</time>
				<speed>0.000000</speed>
			</trkpt>
			<trkpt lat="49.367990000000" lon="11.374920000000">
				<ele>370.000000</ele>
				<time>2009-09-06T10:41:09.000Z</time>
				<speed>0.000000</speed>
			</trkpt>
			<trkpt lat="49.368260000000" lon="11.374950000000">
				<ele>370.000000</ele>
				<time>2009-09-06T10:41:35.000Z</time>
				<speed>0.000000</speed>
			</trkpt>
			<trkpt lat="49.368710000000" lon="11.375090000000">
				<ele>368.000000</ele>
				<time>2009-09-06T10:42:23.000Z</time>
				<speed>0.000000</speed>
			</trkpt>
			<trkpt lat="49.368720000000" lon="11.375090000000">
				<ele>368.000000</ele>
				<time>2009-09-06T10:42:24.000Z</time>
				<speed>0.000000</speed>
			</trkpt>
			<trkpt lat="49.368840000000" lon="11.375100000000">
				<ele>369.000000</ele>
				<time>2009-09-06T10:42:39.000Z</time>
				<speed>0.000000</speed>
			</trkpt>
			<trkpt lat="49.369300000000" lon="11.375040000000">
				<ele>369.000000</ele>
				<time>2009-09-06T10:43:24.000Z</time>
				<speed>0.000000</speed>
			</trkpt>
			<trkpt lat="49.369300000000" lon="11.375040000000">
				<ele>369.000000</ele>
				<time>2009-09-06T10:43:25.000Z</time>
				<speed>0.000000</speed>
			</trkpt>
			<trkpt lat="49.369760000000" lon="11.374980000000">
				<ele>370.000000</ele>
				<time>2009-09-06T10:44:12.000Z</time>
				<speed>0.000000</speed>
			</trkpt>
			<trkpt lat="49.369770000000" lon="11.374980000000">
				<ele>370.000000</ele>
				<time>2009-09-06T10:44:13.000Z</time>
				<speed>0.000000</speed>
			</trkpt>
			<trkpt lat="49.370060000000" lon="11.374980000000">
				<ele>372.000000</ele>
				<time>2009-09-06T10:44:44.000Z</time>
				<speed>0.000000</speed>
			</trkpt>
			<trkpt lat="49.370100000000" lon="11.375100000000">
				<ele>374.000000</ele>
				<time>2009-09-06T10:45:13.000Z</time>
				<speed>0.000000</speed>
			</trkpt>
			<trkpt lat="49.370100000000" lon="11.375220000000">
				<ele>375.000000</ele>
				<time>2009-09-06T10:45:23.000Z</time>
				<speed>0.000000</speed>
			</trkpt>
			<trkpt lat="49.370090000000" lon="11.375300000000">
				<ele>375.000000</ele>
				<time>2009-09-06T10:45:29.000Z</time>
				<speed>0.000000</speed>
			</trkpt>
			<trkpt lat="49.370070000000" lon="11.375380000000">
				<ele>374.000000</ele>
				<time>2009-09-06T10:45:35.000Z</time>
				<speed>0.000000</speed>
			</trkpt>
			<trkpt lat="49.370050000000" lon="11.375500000000">
				<ele>374.000000</ele>
				<time>2009-09-06T10:45:44.000Z</time>
				<speed>0.000000</speed>
			</trkpt>
			<trkpt lat="49.370020000000" lon="11.375700000000">
				<ele>374.000000</ele>
				<time>2009-09-06T10:45:59.000Z</time>
				<speed>0.000000</speed>
			</trkpt>
			<trkpt lat="49.370000000000" lon="11.375790000000">
				<ele>374.000000</ele>
				<time>2009-09-06T10:46:05.000Z</time>
				<speed>0.000000</speed>
			</trkpt>
			<trkpt lat="49.369900000000" lon="11.376460000000">
				<ele>379.000000</ele>
				<time>2009-09-06T10:46:49.000Z</time>
				<speed>0.000000</speed>
			</trkpt>
			<trkpt lat="49.369900000000" lon="11.376480000000">
				<ele>379.000000</ele>
				<time>2009-09-06T10:46:50.000Z</time>
				<speed>0.000000</speed>
			</trkpt>
			<trkpt lat="49.369850000000" lon="11.376740000000">
				<ele>380.000000</ele>
				<time>2009-09-06T10:47:07.000Z</time>
				<speed>0.000000</speed>
			</trkpt>
			<trkpt lat="49.369800000000" lon="11.376820000000">
				<ele>380.000000</ele>
				<time>2009-09-06T10:47:18.000Z</time>
				<speed>0.000000</speed>
			</trkpt>
			<trkpt lat="49.369750000000" lon="11.376830000000">
				<ele>379.000000</ele>
				<time>2009-09-06T10:47:33.000Z</time>
				<speed>0.000000</speed>
			</trkpt>
			<trkpt lat="49.369600000000" lon="11.376880000000">
				<ele>376.000000</ele>
				<time>2009-09-06T10:47:48.000Z</time>
				<speed>0.000000</speed>
			</trkpt>
			<trkpt lat="49.369400000000" lon="11.377010000000">
				<ele>373.000000</ele>
				<time>2009-09-06T10:48:07.000Z</time>
				<speed>0.000000</speed>
			</trkpt>
			<trkpt lat="49.369240000000" lon="11.377170000000">
				<ele>373.000000</ele>
				<time>2009-09-06T10:48:28.000Z</time>
				<speed>0.000000</speed>
			</trkpt>
			<trkpt lat="49.368960000000" lon="11.377510000000">
				<ele>369.000000</ele>
				<time>2009-09-06T10:49:43.000Z</time>
				<speed>0.000000</speed>
			</trkpt>
			<trkpt lat="49.368920000000" lon="11.377610000000">
				<ele>369.000000</ele>
				<time>2009-09-06T10:49:53.000Z</time>
				<speed>0.000000</speed>
			</trkpt>
			<trkpt lat="49.368790000000" lon="11.377770000000">
				<ele>372.000000</ele>
				<time>2009-09-06T10:50:08.000Z</time>
				<speed>0.000000</speed>
			</trkpt>
			<trkpt lat="49.368690000000" lon="11.377880000000">
				<ele>372.000000</ele>
				<time>2009-09-06T10:50:20.000Z</time>
				<speed>0.000000</speed>
			</trkpt>
			<trkpt lat="49.368610000000" lon="11.377970000000">
				<ele>373.000000</ele>
				<time>2009-09-06T10:50:29.000Z</time>
				<speed>0.000000</speed>
			</trkpt>
			<trkpt lat="49.368500000000" lon="11.378080000000">
				<ele>371.000000</ele>
				<time>2009-09-06T10:50:41.000Z</time>
				<speed>0.000000</speed>
			</trkpt>
			<trkpt lat="49.368330000000" lon="11.378160000000">
				<ele>368.000000</ele>
				<time>2009-09-06T10:50:59.000Z</time>
				<speed>0.000000</speed>
			</trkpt>
			<trkpt lat="49.368080000000" lon="11.378190000000">
				<ele>367.000000</ele>
				<time>2009-09-06T10:51:24.000Z</time>
				<speed>0.000000</speed>
			</trkpt>
			<trkpt lat="49.367870000000" lon="11.378120000000">
				<ele>369.000000</ele>
				<time>2009-09-06T10:51:43.000Z</time>
				<speed>0.000000</speed>
			</trkpt>
			<trkpt lat="49.367640000000" lon="11.378120000000">
				<ele>370.000000</ele>
				<time>2009-09-06T10:52:10.000Z</time>
				<speed>0.000000</speed>
			</trkpt>
			<trkpt lat="49.367580000000" lon="11.378170000000">
				<ele>374.000000</ele>
				<time>2009-09-06T10:52:19.000Z</time>
				<speed>0.000000</speed>
			</trkpt>
			<trkpt lat="49.367580000000" lon="11.378260000000">
				<ele>375.000000</ele>
				<time>2009-09-06T10:52:25.000Z</time>
				<speed>0.000000</speed>
			</trkpt>
			<trkpt lat="49.367590000000" lon="11.378440000000">
				<ele>373.000000</ele>
				<time>2009-09-06T10:52:36.000Z</time>
				<speed>0.000000</speed>
			</trkpt>
			<trkpt lat="49.367590000000" lon="11.378560000000">
				<ele>371.000000</ele>
				<time>2009-09-06T10:52:46.000Z</time>
				<speed>0.000000</speed>
			</trkpt>
			<trkpt lat="49.367580000000" lon="11.378640000000">
				<ele>370.000000</ele>
				<time>2009-09-06T10:52:52.000Z</time>
				<speed>0.000000</speed>
			</trkpt>
			<trkpt lat="49.367560000000" lon="11.378720000000">
				<ele>367.000000</ele>
				<time>2009-09-06T10:52:58.000Z</time>
				<speed>0.000000</speed>
			</trkpt>
			<trkpt lat="49.367560000000" lon="11.378800000000">
				<ele>366.000000</ele>
				<time>2009-09-06T10:53:04.000Z</time>
				<speed>0.000000</speed>
			</trkpt>
			<trkpt lat="49.367580000000" lon="11.378880000000">
				<ele>365.000000</ele>
				<time>2009-09-06T10:53:11.000Z</time>
				<speed>0.000000</speed>
			</trkpt>
			<trkpt lat="49.367590000000" lon="11.378890000000">
				<ele>366.000000</ele>
				<time>2009-09-06T10:53:23.000Z</time>
				<speed>0.000000</speed>
			</trkpt>
			<trkpt lat="49.367610000000" lon="11.378790000000">
				<ele>366.000000</ele>
				<time>2009-09-06T10:53:36.000Z</time>
				<speed>0.000000</speed>
			</trkpt>
			<trkpt lat="49.367600000000" lon="11.378700000000">
				<ele>368.000000</ele>
				<time>2009-09-06T10:53:42.000Z</time>
				<speed>0.000000</speed>
			</trkpt>
			<trkpt lat="49.367580000000" lon="11.378440000000">
				<ele>368.000000</ele>
				<time>2009-09-06T10:54:00.000Z</time>
				<speed>0.000000</speed>
			</trkpt>
			<trkpt lat="49.367620000000" lon="11.378230000000">
				<ele>370.000000</ele>
				<time>2009-09-06T10:54:16.000Z</time>
				<speed>0.000000</speed>
			</trkpt>
			<trkpt lat="49.367690000000" lon="11.378140000000">
				<ele>370.000000</ele>
				<time>2009-09-06T10:54:25.000Z</time>
				<speed>0.000000</speed>
			</trkpt>
			<trkpt lat="49.367790000000" lon="11.378050000000">
				<ele>373.000000</ele>
				<time>2009-09-06T10:54:35.000Z</time>
				<speed>0.000000</speed>
			</trkpt>
			<trkpt lat="49.367770000000" lon="11.377960000000">
				<ele>371.000000</ele>
				<time>2009-09-06T10:54:42.000Z</time>
				<speed>0.000000</speed>
			</trkpt>
			<trkpt lat="49.367740000000" lon="11.377890000000">
				<ele>371.000000</ele>
				<time>2009-09-06T10:54:48.000Z</time>
				<speed>0.000000</speed>
			</trkpt>
			<trkpt lat="49.367590000000" lon="11.377680000000">
				<ele>371.000000</ele>
				<time>2009-09-06T10:55:08.000Z</time>
				<speed>0.000000</speed>
			</trkpt>
			<trkpt lat="49.367550000000" lon="11.377610000000">
				<ele>372.000000</ele>
				<time>2009-09-06T10:55:14.000Z</time>
				<speed>0.000000</speed>
			</trkpt>
			<trkpt lat="49.367500000000" lon="11.377500000000">
				<ele>373.000000</ele>
				<time>2009-09-06T10:55:22.000Z</time>
				<speed>0.000000</speed>
			</trkpt>
			<trkpt lat="49.367490000000" lon="11.377420000000">
				<ele>373.000000</ele>
				<time>2009-09-06T10:55:27.000Z</time>
				<speed>0.000000</speed>
			</trkpt>
			<trkpt lat="49.367490000000" lon="11.377330000000">
				<ele>373.000000</ele>
				<time>2009-09-06T10:55:32.000Z</time>
				<speed>0.000000</speed>
			</trkpt>
			<trkpt lat="49.367470000000" lon="11.377100000000">
				<ele>373.000000</ele>
				<time>2009-09-06T10:55:46.000Z</time>
				<speed>0.000000</speed>
			</trkpt>
			<trkpt lat="49.367450000000" lon="11.377020000000">
				<ele>374.000000</ele>
				<time>2009-09-06T10:55:52.000Z</time>
				<speed>0.000000</speed>
			</trkpt>
			<trkpt lat="49.367370000000" lon="11.376860000000">
				<ele>372.000000</ele>
				<time>2009-09-06T10:56:04.000Z</time>
				<speed>0.000000</speed>
			</trkpt>
			<trkpt lat="49.367400000000" lon="11.376780000000">
				<ele>371.000000</ele>
				<time>2009-09-06T10:56:18.000Z</time>
				<speed>0.000000</speed>
			</trkpt>
			<trkpt lat="49.367480000000" lon="11.376910000000">
				<ele>377.000000</ele>
				<time>2009-09-06T11:39:08.000Z</time>
				<speed>0.000000</speed>
			</trkpt>
			<trkpt lat="49.367500000000" lon="11.376970000000">
				<ele>394.000000</ele>
				<time>2009-09-06T11:39:40.000Z</time>
				<speed>0.000000</speed>
			</trkpt>
			<trkpt lat="49.367470000000" lon="11.377000000000">
				<ele>392.000000</ele>
				<time>2009-09-06T11:39:55.000Z</time>
				<speed>0.000000</speed>
			</trkpt>
			<trkpt lat="49.367430000000" lon="11.376940000000">
				<ele>382.000000</ele>
				<time>2009-09-06T11:40:22.000Z</time>
				<speed>0.000000</speed>
			</trkpt>
			<trkpt lat="49.367400000000" lon="11.376870000000">
				<ele>380.000000</ele>
				<time>2009-09-06T11:40:29.000Z</time>
				<speed>0.000000</speed>
			</trkpt>
			<trkpt lat="49.367440000000" lon="11.376760000000">
				<ele>388.000000</ele>
				<time>2009-09-06T11:40:44.000Z</time>
				<speed>0.000000</speed>
			</trkpt>
			<trkpt lat="49.367470000000" lon="11.376540000000">
				<ele>386.000000</ele>
				<time>2009-09-06T11:40:58.000Z</time>
				<speed>0.000000</speed>
			</trkpt>
			<trkpt lat="49.367500000000" lon="11.376390000000">
				<ele>380.000000</ele>
				<time>2009-09-06T11:41:09.000Z</time>
				<speed>0.000000</speed>
			</trkpt>
			<trkpt lat="49.367520000000" lon="11.376310000000">
				<ele>378.000000</ele>
				<time>2009-09-06T11:41:15.000Z</time>
				<speed>0.000000</speed>
			</trkpt>
			<trkpt lat="49.367510000000" lon="11.376170000000">
				<ele>377.000000</ele>
				<time>2009-09-06T11:41:24.000Z</time>
				<speed>0.000000</speed>
			</trkpt>
			<trkpt lat="49.367510000000" lon="11.376000000000">
				<ele>377.000000</ele>
				<time>2009-09-06T11:41:35.000Z</time>
				<speed>0.000000</speed>
			</trkpt>
			<trkpt lat="49.367490000000" lon="11.375870000000">
				<ele>379.000000</ele>
				<time>2009-09-06T11:41:43.000Z</time>
				<speed>0.000000</speed>
			</trkpt>
			<trkpt lat="49.367470000000" lon="11.375780000000">
				<ele>379.000000</ele>
				<time>2009-09-06T11:41:48.000Z</time>
				<speed>0.000000</speed>
			</trkpt>
			<trkpt lat="49.367450000000" lon="11.375590000000">
				<ele>379.000000</ele>
				<time>2009-09-06T11:42:00.000Z</time>
				<speed>0.000000</speed>
			</trkpt>
			<trkpt lat="49.367440000000" lon="11.375510000000">
				<ele>377.000000</ele>
				<time>2009-09-06T11:42:06.000Z</time>
				<speed>0.000000</speed>
			</trkpt>
			<trkpt lat="49.367410000000" lon="11.375270000000">
				<ele>381.000000</ele>
				<time>2009-09-06T11:42:23.000Z</time>
				<speed>0.000000</speed>
			</trkpt>
			<trkpt lat="49.367390000000" lon="11.375100000000">
				<ele>383.000000</ele>
				<time>2009-09-06T11:42:33.000Z</time>
				<speed>0.000000</speed>
			</trkpt>
			<trkpt lat="49.367360000000" lon="11.374990000000">
				<ele>382.000000</ele>
				<time>2009-09-06T11:42:40.000Z</time>
				<speed>0.000000</speed>
			</trkpt>
			<trkpt lat="49.367350000000" lon="11.374870000000">
				<ele>378.000000</ele>
				<time>2009-09-06T11:42:51.000Z</time>
				<speed>0.000000</speed>
			</trkpt>
			<trkpt lat="49.367310000000" lon="11.374710000000">
				<ele>377.000000</ele>
				<time>2009-09-06T11:43:03.000Z</time>
				<speed>0.000000</speed>
			</trkpt>
			<trkpt lat="49.367260000000" lon="11.374510000000">
				<ele>375.000000</ele>
				<time>2009-09-06T11:43:25.000Z</time>
				<speed>0.000000</speed>
			</trkpt>
			<trkpt lat="49.367340000000" lon="11.374440000000">
				<ele>377.000000</ele>
				<time>2009-09-06T11:43:59.000Z</time>
				<speed>0.000000</speed>
			</trkpt>
			<trkpt lat="49.367470000000" lon="11.374440000000">
				<ele>381.000000</ele>
				<time>2009-09-06T11:44:09.000Z</time>
				<speed>0.000000</speed>
			</trkpt>
			<trkpt lat="49.367550000000" lon="11.374460000000">
				<ele>383.000000</ele>
				<time>2009-09-06T11:44:25.000Z</time>
				<speed>0.000000</speed>
			</trkpt>
			<trkpt lat="49.367600000000" lon="11.374470000000">
				<ele>388.000000</ele>
				<time>2009-09-06T11:44:35.000Z</time>
				<speed>0.000000</speed>
			</trkpt>
			<trkpt lat="49.367660000000" lon="11.374470000000">
				<ele>387.000000</ele>
				<time>2009-09-06T11:44:42.000Z</time>
				<speed>0.000000</speed>
			</trkpt>
			<trkpt lat="49.367760000000" lon="11.374430000000">
				<ele>379.000000</ele>
				<time>2009-09-06T11:44:55.000Z</time>
				<speed>0.000000</speed>
			</trkpt>
			<trkpt lat="49.367880000000" lon="11.374390000000">
				<ele>377.000000</ele>
				<time>2009-09-06T11:45:04.000Z</time>
				<speed>0.000000</speed>
			</trkpt>
			<trkpt lat="49.367920000000" lon="11.374450000000">
				<ele>374.000000</ele>
				<time>2009-09-06T11:45:15.000Z</time>
				<speed>0.000000</speed>
			</trkpt>
			<trkpt lat="49.367940000000" lon="11.374530000000">
				<ele>371.000000</ele>
				<time>2009-09-06T11:45:22.000Z</time>
				<speed>0.000000</speed>
			</trkpt>
			<trkpt lat="49.367950000000" lon="11.374600000000">
				<ele>369.000000</ele>
				<time>2009-09-06T11:45:28.000Z</time>
				<speed>0.000000</speed>
			</trkpt>
			<trkpt lat="49.368010000000" lon="11.374890000000">
				<ele>368.000000</ele>
				<time>2009-09-06T11:46:02.000Z</time>
				<speed>0.000000</speed>
			</trkpt>
			<trkpt lat="49.368090000000" lon="11.374890000000">
				<ele>372.000000</ele>
				<time>2009-09-06T11:46:15.000Z</time>
				<speed>0.000000</speed>
			</trkpt>
			<trkpt lat="49.368110000000" lon="11.374950000000">
				<ele>364.000000</ele>
				<time>2009-09-06T11:46:41.000Z</time>
				<speed>0.000000</speed>
			</trkpt>
			<trkpt lat="49.368280000000" lon="11.374970000000">
				<ele>373.000000</ele>
				<time>2009-09-06T11:47:22.000Z</time>
				<speed>0.000000</speed>
			</trkpt>
			<trkpt lat="49.368730000000" lon="11.375090000000">
				<ele>372.000000</ele>
				<time>2009-09-06T11:48:05.000Z</time>
				<speed>0.000000</speed>
			</trkpt>
			<trkpt lat="49.368740000000" lon="11.375090000000">
				<ele>372.000000</ele>
				<time>2009-09-06T11:48:06.000Z</time>
				<speed>0.000000</speed>
			</trkpt>
			<trkpt lat="49.368770000000" lon="11.375090000000">
				<ele>372.000000</ele>
				<time>2009-09-06T11:48:09.000Z</time>
				<speed>0.000000</speed>
			</trkpt>
			<trkpt lat="49.368840000000" lon="11.375070000000">
				<ele>369.000000</ele>
				<time>2009-09-06T11:48:18.000Z</time>
				<speed>0.000000</speed>
			</trkpt>
			<trkpt lat="49.369300000000" lon="11.375040000000">
				<ele>372.000000</ele>
				<time>2009-09-06T11:49:10.000Z</time>
				<speed>0.000000</speed>
			</trkpt>
			<trkpt lat="49.369310000000" lon="11.375040000000">
				<ele>372.000000</ele>
				<time>2009-09-06T11:49:11.000Z</time>
				<speed>0.000000</speed>
			</trkpt>
			<trkpt lat="49.369760000000" lon="11.374950000000">
				<ele>369.000000</ele>
				<time>2009-09-06T11:49:56.000Z</time>
				<speed>0.000000</speed>
			</trkpt>
			<trkpt lat="49.369770000000" lon="11.374950000000">
				<ele>369.000000</ele>
				<time>2009-09-06T11:49:57.000Z</time>
				<speed>0.000000</speed>
			</trkpt>
			<trkpt lat="49.370110000000" lon="11.374890000000">
				<ele>372.000000</ele>
				<time>2009-09-06T11:50:46.000Z</time>
				<speed>0.000000</speed>
			</trkpt>
			<trkpt lat="49.370140000000" lon="11.374690000000">
				<ele>366.000000</ele>
				<time>2009-09-06T11:51:02.000Z</time>
				<speed>0.000000</speed>
			</trkpt>
			<trkpt lat="49.370190000000" lon="11.374460000000">
				<ele>365.000000</ele>
				<time>2009-09-06T11:51:17.000Z</time>
				<speed>0.000000</speed>
			</trkpt>
			<trkpt lat="49.370200000000" lon="11.374310000000">
				<ele>364.000000</ele>
				<time>2009-09-06T11:51:26.000Z</time>
				<speed>0.000000</speed>
			</trkpt>
			<trkpt lat="49.370180000000" lon="11.374230000000">
				<ele>366.000000</ele>
				<time>2009-09-06T11:51:32.000Z</time>
				<speed>0.000000</speed>
			</trkpt>
			<trkpt lat="49.370180000000" lon="11.374140000000">
				<ele>369.000000</ele>
				<time>2009-09-06T11:51:38.000Z</time>
				<speed>0.000000</speed>
			</trkpt>
			<trkpt lat="49.370200000000" lon="11.373830000000">
				<ele>373.000000</ele>
				<time>2009-09-06T11:51:55.000Z</time>
				<speed>0.000000</speed>
			</trkpt>
			<trkpt lat="49.370220000000" lon="11.373620000000">
				<ele>372.000000</ele>
				<time>2009-09-06T11:52:08.000Z</time>
				<speed>0.000000</speed>
			</trkpt>
			<trkpt lat="49.370280000000" lon="11.373000000000">
				<ele>371.000000</ele>
				<time>2009-09-06T11:52:46.000Z</time>
				<speed>0.000000</speed>
			</trkpt>
			<trkpt lat="49.370320000000" lon="11.372840000000">
				<ele>368.000000</ele>
				<time>2009-09-06T11:52:58.000Z</time>
				<speed>0.000000</speed>
			</trkpt>
			<trkpt lat="49.370320000000" lon="11.372780000000">
				<ele>368.000000</ele>
				<time>2009-09-06T11:53:02.000Z</time>
				<speed>0.000000</speed>
			</trkpt>
			<trkpt lat="49.370330000000" lon="11.372690000000">
				<ele>368.000000</ele>
				<time>2009-09-06T11:53:08.000Z</time>
				<speed>0.000000</speed>
			</trkpt>
			<trkpt lat="49.370350000000" lon="11.372560000000">
				<ele>369.000000</ele>
				<time>2009-09-06T11:53:17.000Z</time>
				<speed>0.000000</speed>
			</trkpt>
			<trkpt lat="49.370360000000" lon="11.372420000000">
				<ele>371.000000</ele>
				<time>2009-09-06T11:53:26.000Z</time>
				<speed>0.000000</speed>
			</trkpt>
			<trkpt lat="49.370410000000" lon="11.372170000000">
				<ele>372.000000</ele>
				<time>2009-09-06T11:53:42.000Z</time>
				<speed>0.000000</speed>
			</trkpt>
			<trkpt lat="49.370450000000" lon="11.371900000000">
				<ele>372.000000</ele>
				<time>2009-09-06T11:54:00.000Z</time>
				<speed>0.000000</speed>
			</trkpt>
			<trkpt lat="49.370450000000" lon="11.371780000000">
				<ele>373.000000</ele>
				<time>2009-09-06T11:54:09.000Z</time>
				<speed>0.000000</speed>
			</trkpt>
			<trkpt lat="49.370430000000" lon="11.371590000000">
				<ele>371.000000</ele>
				<time>2009-09-06T11:54:22.000Z</time>
				<speed>0.000000</speed>
			</trkpt>
			<trkpt lat="49.370410000000" lon="11.371500000000">
				<ele>374.000000</ele>
				<time>2009-09-06T11:55:25.000Z</time>
				<speed>0.000000</speed>
			</trkpt>
			<trkpt lat="49.370400000000" lon="11.371280000000">
				<ele>380.000000</ele>
				<time>2009-09-06T11:56:08.000Z</time>
				<speed>0.000000</speed>
			</trkpt>
			<trkpt lat="49.370430000000" lon="11.371080000000">
				<ele>374.000000</ele>
				<time>2009-09-06T11:56:24.000Z</time>
				<speed>0.000000</speed>
			</trkpt>
			<trkpt lat="49.370480000000" lon="11.371040000000">
				<ele>373.000000</ele>
				<time>2009-09-06T11:56:30.000Z</time>
				<speed>0.000000</speed>
			</trkpt>
			<trkpt lat="49.370530000000" lon="11.370990000000">
				<ele>374.000000</ele>
				<time>2009-09-06T11:56:40.000Z</time>
				<speed>0.000000</speed>
			</trkpt>
			<trkpt lat="49.370550000000" lon="11.370900000000">
				<ele>376.000000</ele>
				<time>2009-09-06T11:56:46.000Z</time>
				<speed>0.000000</speed>
			</trkpt>
			<trkpt lat="49.370560000000" lon="11.370720000000">
				<ele>377.000000</ele>
				<time>2009-09-06T11:56:58.000Z</time>
				<speed>0.000000</speed>
			</trkpt>
			<trkpt lat="49.370640000000" lon="11.370050000000">
				<ele>373.000000</ele>
				<time>2009-09-06T11:57:39.000Z</time>
				<speed>0.000000</speed>
			</trkpt>
			<trkpt lat="49.370650000000" lon="11.370040000000">
				<ele>373.000000</ele>
				<time>2009-09-06T11:57:40.000Z</time>
				<speed>0.000000</speed>
			</trkpt>
			<trkpt lat="49.370670000000" lon="11.369610000000">
				<ele>372.000000</ele>
				<time>2009-09-06T11:58:11.000Z</time>
				<speed>0.000000</speed>
			</trkpt>
			<trkpt lat="49.370650000000" lon="11.369460000000">
				<ele>372.000000</ele>
				<time>2009-09-06T11:58:20.000Z</time>
				<speed>0.000000</speed>
			</trkpt>
			<trkpt lat="49.370640000000" lon="11.369370000000">
				<ele>372.000000</ele>
				<time>2009-09-06T11:58:26.000Z</time>
				<speed>0.000000</speed>
			</trkpt>
			<trkpt lat="49.370560000000" lon="11.368770000000">
				<ele>371.000000</ele>
				<time>2009-09-06T11:59:05.000Z</time>
				<speed>0.000000</speed>
			</trkpt>
			<trkpt lat="49.370540000000" lon="11.368330000000">
				<ele>369.000000</ele>
				<time>2009-09-06T11:59:32.000Z</time>
				<speed>0.000000</speed>
			</trkpt>
			<trkpt lat="49.370560000000" lon="11.368250000000">
				<ele>367.000000</ele>
				<time>2009-09-06T11:59:37.000Z</time>
				<speed>0.000000</speed>
			</trkpt>
			<trkpt lat="49.370520000000" lon="11.367960000000">
				<ele>371.000000</ele>
				<time>2009-09-06T11:59:55.000Z</time>
				<speed>0.000000</speed>
			</trkpt>
			<trkpt lat="49.370510000000" lon="11.367630000000">
				<ele>373.000000</ele>
				<time>2009-09-06T12:00:14.000Z</time>
				<speed>0.000000</speed>
			</trkpt>
			<trkpt lat="49.370510000000" lon="11.367520000000">
				<ele>373.000000</ele>
				<time>2009-09-06T12:00:20.000Z</time>
				<speed>0.000000</speed>
			</trkpt>
			<trkpt lat="49.370460000000" lon="11.366830000000">
				<ele>372.000000</ele>
				<time>2009-09-06T12:01:00.000Z</time>
				<speed>0.000000</speed>
			</trkpt>
			<trkpt lat="49.370460000000" lon="11.366810000000">
				<ele>372.000000</ele>
				<time>2009-09-06T12:01:01.000Z</time>
				<speed>0.000000</speed>
			</trkpt>
			<trkpt lat="49.370440000000" lon="11.366420000000">
				<ele>372.000000</ele>
				<time>2009-09-06T12:01:25.000Z</time>
				<speed>0.000000</speed>
			</trkpt>
			<trkpt lat="49.370570000000" lon="11.365760000000">
				<ele>366.000000</ele>
				<time>2009-09-06T12:02:08.000Z</time>
				<speed>0.000000</speed>
			</trkpt>
			<trkpt lat="49.370570000000" lon="11.365740000000">
				<ele>366.000000</ele>
				<time>2009-09-06T12:02:09.000Z</time>
				<speed>0.000000</speed>
			</trkpt>
			<trkpt lat="49.370700000000" lon="11.365070000000">
				<ele>367.000000</ele>
				<time>2009-09-06T12:02:51.000Z</time>
				<speed>0.000000</speed>
			</trkpt>
			<trkpt lat="49.370700000000" lon="11.365050000000">
				<ele>367.000000</ele>
				<time>2009-09-06T12:02:52.000Z</time>
				<speed>0.000000</speed>
			</trkpt>
			<trkpt lat="49.370740000000" lon="11.364720000000">
				<ele>368.000000</ele>
				<time>2009-09-06T12:03:12.000Z</time>
				<speed>0.000000</speed>
			</trkpt>
			<trkpt lat="49.370770000000" lon="11.364510000000">
				<ele>368.000000</ele>
				<time>2009-09-06T12:03:24.000Z</time>
				<speed>0.000000</speed>
			</trkpt>
			<trkpt lat="49.370870000000" lon="11.363960000000">
				<ele>365.000000</ele>
				<time>2009-09-06T12:03:55.000Z</time>
				<speed>0.000000</speed>
			</trkpt>
			<trkpt lat="49.370870000000" lon="11.363870000000">
				<ele>367.000000</ele>
				<time>2009-09-06T12:04:01.000Z</time>
				<speed>0.000000</speed>
			</trkpt>
			<trkpt lat="49.370870000000" lon="11.363780000000">
				<ele>369.000000</ele>
				<time>2009-09-06T12:04:07.000Z</time>
				<speed>0.000000</speed>
			</trkpt>
			<trkpt lat="49.370900000000" lon="11.363670000000">
				<ele>367.000000</ele>
				<time>2009-09-06T12:04:15.000Z</time>
				<speed>0.000000</speed>
			</trkpt>
			<trkpt lat="49.370930000000" lon="11.363600000000">
				<ele>365.000000</ele>
				<time>2009-09-06T12:04:21.000Z</time>
				<speed>0.000000</speed>
			</trkpt>
			<trkpt lat="49.370970000000" lon="11.363380000000">
				<ele>361.000000</ele>
				<time>2009-09-06T12:04:35.000Z</time>
				<speed>0.000000</speed>
			</trkpt>
			<trkpt lat="49.370970000000" lon="11.363190000000">
				<ele>358.000000</ele>
				<time>2009-09-06T12:04:49.000Z</time>
				<speed>0.000000</speed>
			</trkpt>
			<trkpt lat="49.370970000000" lon="11.363100000000">
				<ele>355.000000</ele>
				<time>2009-09-06T12:04:54.000Z</time>
				<speed>0.000000</speed>
			</trkpt>
			<trkpt lat="49.370960000000" lon="11.362940000000">
				<ele>356.000000</ele>
				<time>2009-09-06T12:05:08.000Z</time>
				<speed>0.000000</speed>
			</trkpt>
			<trkpt lat="49.370890000000" lon="11.362340000000">
				<ele>364.000000</ele>
				<time>2009-09-06T12:05:45.000Z</time>
				<speed>0.000000</speed>
			</trkpt>
			<trkpt lat="49.370890000000" lon="11.362240000000">
				<ele>365.000000</ele>
				<time>2009-09-06T12:05:51.000Z</time>
				<speed>0.000000</speed>
			</trkpt>
			<trkpt lat="49.371020000000" lon="11.362160000000">
				<ele>367.000000</ele>
				<time>2009-09-06T12:06:04.000Z</time>
				<speed>0.000000</speed>
			</trkpt>
			<trkpt lat="49.371130000000" lon="11.362090000000">
				<ele>373.000000</ele>
				<time>2009-09-06T12:06:17.000Z</time>
				<speed>0.000000</speed>
			</trkpt>
			<trkpt lat="49.371250000000" lon="11.361910000000">
				<ele>374.000000</ele>
				<time>2009-09-06T12:06:31.000Z</time>
				<speed>0.000000</speed>
			</trkpt>
			<trkpt lat="49.371350000000" lon="11.361580000000">
				<ele>370.000000</ele>
				<time>2009-09-06T12:06:51.000Z</time>
				<speed>0.000000</speed>
			</trkpt>
			<trkpt lat="49.371410000000" lon="11.361280000000">
				<ele>372.000000</ele>
				<time>2009-09-06T12:07:10.000Z</time>
				<speed>0.000000</speed>
			</trkpt>
			<trkpt lat="49.371420000000" lon="11.361000000000">
				<ele>369.000000</ele>
				<time>2009-09-06T12:07:35.000Z</time>
				<speed>0.000000</speed>
			</trkpt>
			<trkpt lat="49.371430000000" lon="11.360920000000">
				<ele>369.000000</ele>
				<time>2009-09-06T12:07:43.000Z</time>
				<speed>0.000000</speed>
			</trkpt>
			<trkpt lat="49.371440000000" lon="11.360720000000">
				<ele>370.000000</ele>
				<time>2009-09-06T12:08:00.000Z</time>
				<speed>0.000000</speed>
			</trkpt>
			<trkpt lat="49.371450000000" lon="11.360390000000">
				<ele>375.000000</ele>
				<time>2009-09-06T12:08:32.000Z</time>
				<speed>0.000000</speed>
			</trkpt>
			<trkpt lat="49.371450000000" lon="11.360200000000">
				<ele>374.000000</ele>
				<time>2009-09-06T12:08:44.000Z</time>
				<speed>0.000000</speed>
			</trkpt>
			<trkpt lat="49.371480000000" lon="11.360010000000">
				<ele>373.000000</ele>
				<time>2009-09-06T12:08:56.000Z</time>
				<speed>0.000000</speed>
			</trkpt>
			<trkpt lat="49.371500000000" lon="11.359930000000">
				<ele>373.000000</ele>
				<time>2009-09-06T12:09:01.000Z</time>
				<speed>0.000000</speed>
			</trkpt>
			<trkpt lat="49.371550000000" lon="11.359730000000">
				<ele>370.000000</ele>
				<time>2009-09-06T12:09:14.000Z</time>
				<speed>0.000000</speed>
			</trkpt>
			<trkpt lat="49.371530000000" lon="11.359590000000">
				<ele>372.000000</ele>
				<time>2009-09-06T12:09:23.000Z</time>
				<speed>0.000000</speed>
			</trkpt>
			<trkpt lat="49.371570000000" lon="11.359210000000">
				<ele>371.000000</ele>
				<time>2009-09-06T12:09:46.000Z</time>
				<speed>0.000000</speed>
			</trkpt>
			<trkpt lat="49.371570000000" lon="11.359120000000">
				<ele>371.000000</ele>
				<time>2009-09-06T12:09:51.000Z</time>
				<speed>0.000000</speed>
			</trkpt>
			<trkpt lat="49.371600000000" lon="11.359000000000">
				<ele>371.000000</ele>
				<time>2009-09-06T12:09:58.000Z</time>
				<speed>0.000000</speed>
			</trkpt>
			<trkpt lat="49.371640000000" lon="11.358840000000">
				<ele>370.000000</ele>
				<time>2009-09-06T12:10:09.000Z</time>
				<speed>0.000000</speed>
			</trkpt>
			<trkpt lat="49.371670000000" lon="11.358680000000">
				<ele>369.000000</ele>
				<time>2009-09-06T12:10:21.000Z</time>
				<speed>0.000000</speed>
			</trkpt>
			<trkpt lat="49.371720000000" lon="11.358510000000">
				<ele>364.000000</ele>
				<time>2009-09-06T12:10:35.000Z</time>
				<speed>0.000000</speed>
			</trkpt>
			<trkpt lat="49.371700000000" lon="11.358230000000">
				<ele>368.000000</ele>
				<time>2009-09-06T12:10:55.000Z</time>
				<speed>0.000000</speed>
			</trkpt>
			<trkpt lat="49.371680000000" lon="11.358020000000">
				<ele>369.000000</ele>
				<time>2009-09-06T12:11:09.000Z</time>
				<speed>0.000000</speed>
			</trkpt>
			<trkpt lat="49.371660000000" lon="11.357850000000">
				<ele>371.000000</ele>
				<time>2009-09-06T12:11:35.000Z</time>
				<speed>0.000000</speed>
			</trkpt>
			<trkpt lat="49.371590000000" lon="11.357780000000">
				<ele>387.000000</ele>
				<time>2009-09-06T12:12:23.000Z</time>
				<speed>0.000000</speed>
			</trkpt>
			<trkpt lat="49.371620000000" lon="11.357700000000">
				<ele>378.000000</ele>
				<time>2009-09-06T12:12:28.000Z</time>
				<speed>0.000000</speed>
			</trkpt>
			<trkpt lat="49.371630000000" lon="11.357630000000">
				<ele>372.000000</ele>
				<time>2009-09-06T12:12:47.000Z</time>
				<speed>0.000000</speed>
			</trkpt>
			<trkpt lat="49.371600000000" lon="11.357580000000">
				<ele>377.000000</ele>
				<time>2009-09-06T12:13:33.000Z</time>
				<speed>0.000000</speed>
			</trkpt>
			<trkpt lat="49.371620000000" lon="11.357500000000">
				<ele>373.000000</ele>
				<time>2009-09-06T12:13:46.000Z</time>
				<speed>0.000000</speed>
			</trkpt>
			<trkpt lat="49.371600000000" lon="11.357360000000">
				<ele>369.000000</ele>
				<time>2009-09-06T12:14:13.000Z</time>
				<speed>0.000000</speed>
			</trkpt>
			<trkpt lat="49.371520000000" lon="11.357340000000">
				<ele>374.000000</ele>
				<time>2009-09-06T12:14:36.000Z</time>
				<speed>0.000000</speed>
			</trkpt>
			<trkpt lat="49.371550000000" lon="11.357330000000">
				<ele>368.000000</ele>
				<time>2009-09-06T12:15:15.000Z</time>
				<speed>0.000000</speed>
			</trkpt>
			<trkpt lat="49.371570000000" lon="11.357260000000">
				<ele>366.000000</ele>
				<time>2009-09-06T12:15:19.000Z</time>
				<speed>0.000000</speed>
			</trkpt>
			<trkpt lat="49.371580000000" lon="11.357190000000">
				<ele>366.000000</ele>
				<time>2009-09-06T12:15:23.000Z</time>
				<speed>0.000000</speed>
			</trkpt>
			<trkpt lat="49.371580000000" lon="11.357070000000">
				<ele>369.000000</ele>
				<time>2009-09-06T12:15:31.000Z</time>
				<speed>0.000000</speed>
			</trkpt>
			<trkpt lat="49.371530000000" lon="11.356980000000">
				<ele>372.000000</ele>
				<time>2009-09-06T12:15:41.000Z</time>
				<speed>0.000000</speed>
			</trkpt>
			<trkpt lat="49.371510000000" lon="11.356950000000">
				<ele>367.000000</ele>
				<time>2009-09-06T12:16:20.000Z</time>
				<speed>0.000000</speed>
			</trkpt>
			<trkpt lat="49.371510000000" lon="11.356960000000">
				<ele>372.000000</ele>
				<time>2009-09-06T12:18:10.000Z</time>
				<speed>0.000000</speed>
			</trkpt>
			<trkpt lat="49.371540000000" lon="11.356900000000">
				<ele>371.000000</ele>
				<time>2009-09-06T12:18:53.000Z</time>
				<speed>0.000000</speed>
			</trkpt>
			<trkpt lat="49.371580000000" lon="11.356840000000">
				<ele>365.000000</ele>
				<time>2009-09-06T12:19:01.000Z</time>
				<speed>0.000000</speed>
			</trkpt>
			<trkpt lat="49.371680000000" lon="11.356620000000">
				<ele>363.000000</ele>
				<time>2009-09-06T12:19:17.000Z</time>
				<speed>0.000000</speed>
			</trkpt>
			<trkpt lat="49.371790000000" lon="11.356460000000">
				<ele>371.000000</ele>
				<time>2009-09-06T12:19:35.000Z</time>
				<speed>0.000000</speed>
			</trkpt>
			<trkpt lat="49.371810000000" lon="11.356390000000">
				<ele>372.000000</ele>
				<time>2009-09-06T12:19:50.000Z</time>
				<speed>0.000000</speed>
			</trkpt>
			<trkpt lat="49.371760000000" lon="11.356320000000">
				<ele>382.000000</ele>
				<time>2009-09-06T12:20:05.000Z</time>
				<speed>0.000000</speed>
			</trkpt>
			<trkpt lat="49.371760000000" lon="11.356250000000">
				<ele>376.000000</ele>
				<time>2009-09-06T12:20:24.000Z</time>
				<speed>0.000000</speed>
			</trkpt>
			<trkpt lat="49.371850000000" lon="11.356190000000">
				<ele>372.000000</ele>
				<time>2009-09-06T12:20:34.000Z</time>
				<speed>0.000000</speed>
			</trkpt>
			<trkpt lat="49.371980000000" lon="11.356060000000">
				<ele>368.000000</ele>
				<time>2009-09-06T12:20:52.000Z</time>
				<speed>0.000000</speed>
			</trkpt>
			<trkpt lat="49.372090000000" lon="11.355860000000">
				<ele>370.000000</ele>
				<time>2009-09-06T12:21:13.000Z</time>
				<speed>0.000000</speed>
			</trkpt>
			<trkpt lat="49.372140000000" lon="11.355710000000">
				<ele>374.000000</ele>
				<time>2009-09-06T12:21:27.000Z</time>
				<speed>0.000000</speed>
			</trkpt>
			<trkpt lat="49.372200000000" lon="11.355530000000">
				<ele>373.000000</ele>
				<time>2009-09-06T12:21:44.000Z</time>
				<speed>0.000000</speed>
			</trkpt>
			<trkpt lat="49.372230000000" lon="11.355470000000">
				<ele>372.000000</ele>
				<time>2009-09-06T12:21:50.000Z</time>
				<speed>0.000000</speed>
			</trkpt>
			<trkpt lat="49.372280000000" lon="11.355440000000">
				<ele>372.000000</ele>
				<time>2009-09-06T12:21:59.000Z</time>
				<speed>0.000000</speed>
			</trkpt>
			<trkpt lat="49.372390000000" lon="11.355370000000">
				<ele>387.000000</ele>
				<time>2009-09-06T12:22:20.000Z</time>
				<speed>0.000000</speed>
			</trkpt>
			<trkpt lat="49.372410000000" lon="11.355250000000">
				<ele>390.000000</ele>
				<time>2009-09-06T12:22:30.000Z</time>
				<speed>0.000000</speed>
			</trkpt>
			<trkpt lat="49.372480000000" lon="11.355140000000">
				<ele>381.000000</ele>
				<time>2009-09-06T12:22:48.000Z</time>
				<speed>0.000000</speed>
			</trkpt>
			<trkpt lat="49.372510000000" lon="11.355070000000">
				<ele>377.000000</ele>
				<time>2009-09-06T12:22:55.000Z</time>
				<speed>0.000000</speed>
			</trkpt>
			<trkpt lat="49.372510000000" lon="11.355000000000">
				<ele>380.000000</ele>
				<time>2009-09-06T12:23:03.000Z</time>
				<speed>0.000000</speed>
			</trkpt>
			<trkpt lat="49.372510000000" lon="11.354910000000">
				<ele>383.000000</ele>
				<time>2009-09-06T12:23:09.000Z</time>
				<speed>0.000000</speed>
			</trkpt>
			<trkpt lat="49.372510000000" lon="11.354820000000">
				<ele>386.000000</ele>
				<time>2009-09-06T12:23:16.000Z</time>
				<speed>0.000000</speed>
			</trkpt>
			<trkpt lat="49.372490000000" lon="11.354750000000">
				<ele>390.000000</ele>
				<time>2009-09-06T12:23:32.000Z</time>
				<speed>0.000000</speed>
			</trkpt>
			<trkpt lat="49.372560000000" lon="11.354540000000">
				<ele>386.000000</ele>
				<time>2009-09-06T12:23:49.000Z</time>
				<speed>0.000000</speed>
			</trkpt>
			<trkpt lat="49.372590000000" lon="11.354460000000">
				<ele>385.000000</ele>
				<time>2009-09-06T12:23:55.000Z</time>
				<speed>0.000000</speed>
			</trkpt>
			<trkpt lat="49.372610000000" lon="11.354390000000">
				<ele>382.000000</ele>
				<time>2009-09-06T12:24:00.000Z</time>
				<speed>0.000000</speed>
			</trkpt>
			<trkpt lat="49.372660000000" lon="11.354270000000">
				<ele>378.000000</ele>
				<time>2009-09-06T12:24:09.000Z</time>
				<speed>0.000000</speed>
			</trkpt>
			<trkpt lat="49.372700000000" lon="11.354190000000">
				<ele>374.000000</ele>
				<time>2009-09-06T12:24:14.000Z</time>
				<speed>0.000000</speed>
			</trkpt>
			<trkpt lat="49.372810000000" lon="11.354020000000">
				<ele>362.000000</ele>
				<time>2009-09-06T12:24:31.000Z</time>
				<speed>0.000000</speed>
			</trkpt>
			<trkpt lat="49.372950000000" lon="11.353890000000">
				<ele>357.000000</ele>
				<time>2009-09-06T12:24:51.000Z</time>
				<speed>0.000000</speed>
			</trkpt>
			<trkpt lat="49.372940000000" lon="11.353820000000">
				<ele>364.000000</ele>
				<time>2009-09-06T12:25:05.000Z</time>
				<speed>0.000000</speed>
			</trkpt>
			<trkpt lat="49.372900000000" lon="11.353750000000">
				<ele>380.000000</ele>
				<time>2009-09-06T12:25:24.000Z</time>
				<speed>0.000000</speed>
			</trkpt>
			<trkpt lat="49.372950000000" lon="11.353620000000">
				<ele>386.000000</ele>
				<time>2009-09-06T12:25:48.000Z</time>
				<speed>0.000000</speed>
			</trkpt>
			<trkpt lat="49.372920000000" lon="11.353550000000">
				<ele>388.000000</ele>
				<time>2009-09-06T12:26:09.000Z</time>
				<speed>0.000000</speed>
			</trkpt>
			<trkpt lat="49.372990000000" lon="11.353400000000">
				<ele>386.000000</ele>
				<time>2009-09-06T12:26:20.000Z</time>
				<speed>0.000000</speed>
			</trkpt>
			<trkpt lat="49.373030000000" lon="11.353300000000">
				<ele>390.000000</ele>
				<time>2009-09-06T12:26:34.000Z</time>
				<speed>0.000000</speed>
			</trkpt>
			<trkpt lat="49.373050000000" lon="11.353240000000">
				<ele>393.000000</ele>
				<time>2009-09-06T12:26:48.000Z</time>
				<speed>0.000000</speed>
			</trkpt>
			<trkpt lat="49.373100000000" lon="11.353330000000">
				<ele>390.000000</ele>
				<time>2009-09-06T12:27:02.000Z</time>
				<speed>0.000000</speed>
			</trkpt>
			<trkpt lat="49.373110000000" lon="11.353410000000">
				<ele>392.000000</ele>
				<time>2009-09-06T12:27:08.000Z</time>
				<speed>0.000000</speed>
			</trkpt>
			<trkpt lat="49.373120000000" lon="11.353500000000">
				<ele>396.000000</ele>
				<time>2009-09-06T12:27:15.000Z</time>
				<speed>0.000000</speed>
			</trkpt>
			<trkpt lat="49.373130000000" lon="11.353590000000">
				<ele>401.000000</ele>
				<time>2009-09-06T12:27:26.000Z</time>
				<speed>0.000000</speed>
			</trkpt>
			<trkpt lat="49.373200000000" lon="11.353680000000">
				<ele>404.000000</ele>
				<time>2009-09-06T12:27:40.000Z</time>
				<speed>0.000000</speed>
			</trkpt>
			<trkpt lat="49.373490000000" lon="11.353580000000">
				<ele>402.000000</ele>
				<time>2009-09-06T12:28:22.000Z</time>
				<speed>0.000000</speed>
			</trkpt>
			<trkpt lat="49.373540000000" lon="11.353580000000">
				<ele>402.000000</ele>
				<time>2009-09-06T12:28:37.000Z</time>
				<speed>0.000000</speed>
			</trkpt>
			<trkpt lat="49.373590000000" lon="11.353600000000">
				<ele>396.000000</ele>
				<time>2009-09-06T12:28:49.000Z</time>
				<speed>0.000000</speed>
			</trkpt>
			<trkpt lat="49.373710000000" lon="11.353650000000">
				<ele>392.000000</ele>
				<time>2009-09-06T12:29:23.000Z</time>
				<speed>0.000000</speed>
			</trkpt>
			<trkpt lat="49.373720000000" lon="11.353800000000">
				<ele>392.000000</ele>
				<time>2009-09-06T12:29:30.000Z</time>
				<speed>0.000000</speed>
			</trkpt>
			<trkpt lat="49.373710000000" lon="11.353880000000">
				<ele>390.000000</ele>
				<time>2009-09-06T12:29:37.000Z</time>
				<speed>0.000000</speed>
			</trkpt>
			<trkpt lat="49.373660000000" lon="11.353930000000">
				<ele>398.000000</ele>
				<time>2009-09-06T12:29:47.000Z</time>
				<speed>0.000000</speed>
			</trkpt>
			<trkpt lat="49.373540000000" lon="11.353920000000">
				<ele>417.000000</ele>
				<time>2009-09-06T12:30:14.000Z</time>
				<speed>0.000000</speed>
			</trkpt>
			<trkpt lat="49.373510000000" lon="11.353900000000">
				<ele>418.000000</ele>
				<time>2009-09-06T12:30:47.000Z</time>
				<speed>0.000000</speed>
			</trkpt>
			<trkpt lat="49.373510000000" lon="11.353900000000">
				<ele>422.000000</ele>
				<time>2009-09-06T12:31:29.000Z</time>
				<speed>0.000000</speed>
			</trkpt>
			<trkpt lat="49.373620000000" lon="11.353940000000">
				<ele>412.000000</ele>
				<time>2009-09-06T12:31:40.000Z</time>
				<speed>0.000000</speed>
			</trkpt>
			<trkpt lat="49.373660000000" lon="11.353990000000">
				<ele>407.000000</ele>
				<time>2009-09-06T12:31:53.000Z</time>
				<speed>0.000000</speed>
			</trkpt>
			<trkpt lat="49.373680000000" lon="11.354100000000">
				<ele>405.000000</ele>
				<time>2009-09-06T12:32:01.000Z</time>
				<speed>0.000000</speed>
			</trkpt>
			<trkpt lat="49.373710000000" lon="11.354220000000">
				<ele>400.000000</ele>
				<time>2009-09-06T12:32:20.000Z</time>
				<speed>0.000000</speed>
			</trkpt>
			<trkpt lat="49.373760000000" lon="11.354360000000">
				<ele>400.000000</ele>
				<time>2009-09-06T12:32:40.000Z</time>
				<speed>0.000000</speed>
			</trkpt>
			<trkpt lat="49.373790000000" lon="11.354420000000">
				<ele>402.000000</ele>
				<time>2009-09-06T12:32:47.000Z</time>
				<speed>0.000000</speed>
			</trkpt>
			<trkpt lat="49.373840000000" lon="11.354470000000">
				<ele>402.000000</ele>
				<time>2009-09-06T12:32:54.000Z</time>
				<speed>0.000000</speed>
			</trkpt>
			<trkpt lat="49.373940000000" lon="11.354640000000">
				<ele>400.000000</ele>
				<time>2009-09-06T12:33:14.000Z</time>
				<speed>0.000000</speed>
			</trkpt>
			<trkpt lat="49.374010000000" lon="11.354690000000">
				<ele>400.000000</ele>
				<time>2009-09-06T12:33:24.000Z</time>
				<speed>0.000000</speed>
			</trkpt>
			<trkpt lat="49.374110000000" lon="11.354810000000">
				<ele>402.000000</ele>
				<time>2009-09-06T12:33:50.000Z</time>
				<speed>0.000000</speed>
			</trkpt>
			<trkpt lat="49.374170000000" lon="11.354830000000">
				<ele>400.000000</ele>
				<time>2009-09-06T12:34:00.000Z</time>
				<speed>0.000000</speed>
			</trkpt>
			<trkpt lat="49.374290000000" lon="11.354900000000">
				<ele>400.000000</ele>
				<time>2009-09-06T12:34:21.000Z</time>
				<speed>0.000000</speed>
			</trkpt>
			<trkpt lat="49.374630000000" lon="11.355120000000">
				<ele>408.000000</ele>
				<time>2009-09-06T12:35:35.000Z</time>
				<speed>0.000000</speed>
			</trkpt>
			<trkpt lat="49.374650000000" lon="11.355130000000">
				<ele>418.000000</ele>
				<time>2009-09-06T12:36:09.000Z</time>
				<speed>0.000000</speed>
			</trkpt>
			<trkpt lat="49.374720000000" lon="11.355210000000">
				<ele>419.000000</ele>
				<time>2009-09-06T12:36:24.000Z</time>
				<speed>0.000000</speed>
			</trkpt>
			<trkpt lat="49.374890000000" lon="11.355310000000">
				<ele>421.000000</ele>
				<time>2009-09-06T12:36:55.000Z</time>
				<speed>0.000000</speed>
			</trkpt>
			<trkpt lat="49.374950000000" lon="11.355320000000">
				<ele>421.000000</ele>
				<time>2009-09-06T12:37:03.000Z</time>
				<speed>0.000000</speed>
			</trkpt>
			<trkpt lat="49.375100000000" lon="11.355320000000">
				<ele>422.000000</ele>
				<time>2009-09-06T12:37:24.000Z</time>
				<speed>0.000000</speed>
			</trkpt>
			<trkpt lat="49.375160000000" lon="11.355300000000">
				<ele>422.000000</ele>
				<time>2009-09-06T12:37:31.000Z</time>
				<speed>0.000000</speed>
			</trkpt>
			<trkpt lat="49.375440000000" lon="11.355150000000">
				<ele>424.000000</ele>
				<time>2009-09-06T12:38:11.000Z</time>
				<speed>0.000000</speed>
			</trkpt>
			<trkpt lat="49.375610000000" lon="11.355090000000">
				<ele>427.000000</ele>
				<time>2009-09-06T12:38:40.000Z</time>
				<speed>0.000000</speed>
			</trkpt>
			<trkpt lat="49.376060000000" lon="11.355130000000">
				<ele>436.000000</ele>
				<time>2009-09-06T12:39:43.000Z</time>
				<speed>0.000000</speed>
			</trkpt>
			<trkpt lat="49.376070000000" lon="11.355130000000">
				<ele>436.000000</ele>
				<time>2009-09-06T12:39:44.000Z</time>
				<speed>0.000000</speed>
			</trkpt>
			<trkpt lat="49.376150000000" lon="11.355160000000">
				<ele>435.000000</ele>
				<time>2009-09-06T12:40:01.000Z</time>
				<speed>0.000000</speed>
			</trkpt>
			<trkpt lat="49.376240000000" lon="11.355170000000">
				<ele>437.000000</ele>
				<time>2009-09-06T12:40:13.000Z</time>
				<speed>0.000000</speed>
			</trkpt>
			<trkpt lat="49.376430000000" lon="11.355090000000">
				<ele>442.000000</ele>
				<time>2009-09-06T12:40:42.000Z</time>
				<speed>0.000000</speed>
			</trkpt>
			<trkpt lat="49.376460000000" lon="11.355020000000">
				<ele>442.000000</ele>
				<time>2009-09-06T12:40:48.000Z</time>
				<speed>0.000000</speed>
			</trkpt>
			<trkpt lat="49.376520000000" lon="11.354450000000">
				<ele>444.000000</ele>
				<time>2009-09-06T12:41:27.000Z</time>
				<speed>0.000000</speed>
			</trkpt>
			<trkpt lat="49.376560000000" lon="11.354340000000">
				<ele>444.000000</ele>
				<time>2009-09-06T12:41:36.000Z</time>
				<speed>0.000000</speed>
			</trkpt>
			<trkpt lat="49.376610000000" lon="11.354190000000">
				<ele>444.000000</ele>
				<time>2009-09-06T12:41:48.000Z</time>
				<speed>0.000000</speed>
			</trkpt>
			<trkpt lat="49.376780000000" lon="11.353720000000">
				<ele>446.000000</ele>
				<time>2009-09-06T12:42:23.000Z</time>
				<speed>0.000000</speed>
			</trkpt>
			<trkpt lat="49.376810000000" lon="11.353490000000">
				<ele>447.000000</ele>
				<time>2009-09-06T12:42:38.000Z</time>
				<speed>0.000000</speed>
			</trkpt>
			<trkpt lat="49.376800000000" lon="11.353340000000">
				<ele>446.000000</ele>
				<time>2009-09-06T12:42:47.000Z</time>
				<speed>0.000000</speed>
			</trkpt>
			<trkpt lat="49.376790000000" lon="11.353250000000">
				<ele>447.000000</ele>
				<time>2009-09-06T12:42:53.000Z</time>
				<speed>0.000000</speed>
			</trkpt>
			<trkpt lat="49.376770000000" lon="11.353180000000">
				<ele>446.000000</ele>
				<time>2009-09-06T12:42:59.000Z</time>
				<speed>0.000000</speed>
			</trkpt>
			<trkpt lat="49.376730000000" lon="11.353140000000">
				<ele>445.000000</ele>
				<time>2009-09-06T12:43:04.000Z</time>
				<speed>0.000000</speed>
			</trkpt>
			<trkpt lat="49.376640000000" lon="11.353150000000">
				<ele>442.000000</ele>
				<time>2009-09-06T12:43:16.000Z</time>
				<speed>0.000000</speed>
			</trkpt>
			<trkpt lat="49.376590000000" lon="11.353170000000">
				<ele>440.000000</ele>
				<time>2009-09-06T12:43:22.000Z</time>
				<speed>0.000000</speed>
			</trkpt>
			<trkpt lat="49.376360000000" lon="11.353220000000">
				<ele>436.000000</ele>
				<time>2009-09-06T12:43:47.000Z</time>
				<speed>0.000000</speed>
			</trkpt>
			<trkpt lat="49.376260000000" lon="11.353160000000">
				<ele>435.000000</ele>
				<time>2009-09-06T12:43:58.000Z</time>
				<speed>0.000000</speed>
			</trkpt>
			<trkpt lat="49.376270000000" lon="11.353080000000">
				<ele>435.000000</ele>
				<time>2009-09-06T12:44:06.000Z</time>
				<speed>0.000000</speed>
			</trkpt>
			<trkpt lat="49.376530000000" lon="11.353000000000">
				<ele>435.000000</ele>
				<time>2009-09-06T12:44:33.000Z</time>
				<speed>0.000000</speed>
			</trkpt>
			<trkpt lat="49.376630000000" lon="11.352950000000">
				<ele>437.000000</ele>
				<time>2009-09-06T12:44:44.000Z</time>
				<speed>0.000000</speed>
			</trkpt>
			<trkpt lat="49.376930000000" lon="11.352690000000">
				<ele>437.000000</ele>
				<time>2009-09-06T12:45:20.000Z</time>
				<speed>0.000000</speed>
			</trkpt>
			<trkpt lat="49.377010000000" lon="11.352610000000">
				<ele>436.000000</ele>
				<time>2009-09-06T12:45:30.000Z</time>
				<speed>0.000000</speed>
			</trkpt>
			<trkpt lat="49.377200000000" lon="11.352480000000">
				<ele>439.000000</ele>
				<time>2009-09-06T12:45:52.000Z</time>
				<speed>0.000000</speed>
			</trkpt>
			<trkpt lat="49.377510000000" lon="11.352350000000">
				<ele>443.000000</ele>
				<time>2009-09-06T12:46:24.000Z</time>
				<speed>0.000000</speed>
			</trkpt>
			<trkpt lat="49.378420000000" lon="11.352240000000">
				<ele>446.000000</ele>
				<time>2009-09-06T12:47:36.000Z</time>
				<speed>0.000000</speed>
			</trkpt>
			<trkpt lat="49.378420000000" lon="11.352240000000">
				<ele>447.000000</ele>
				<time>2009-09-06T12:47:37.000Z</time>
				<speed>0.000000</speed>
			</trkpt>
			<trkpt lat="49.378450000000" lon="11.352270000000">
				<ele>448.000000</ele>
				<time>2009-09-06T12:47:39.000Z</time>
				<speed>0.000000</speed>
			</trkpt>
			<trkpt lat="49.378550000000" lon="11.352330000000">
				<ele>448.000000</ele>
				<time>2009-09-06T12:47:55.000Z</time>
				<speed>0.000000</speed>
			</trkpt>
			<trkpt lat="49.378620000000" lon="11.352320000000">
				<ele>446.000000</ele>
				<time>2009-09-06T12:48:05.000Z</time>
				<speed>0.000000</speed>
			</trkpt>
			<trkpt lat="49.378790000000" lon="11.352290000000">
				<ele>445.000000</ele>
				<time>2009-09-06T12:48:19.000Z</time>
				<speed>0.000000</speed>
			</trkpt>
			<trkpt lat="49.379250000000" lon="11.352220000000">
				<ele>441.000000</ele>
				<time>2009-09-06T12:49:10.000Z</time>
				<speed>0.000000</speed>
			</trkpt>
			<trkpt lat="49.379250000000" lon="11.352220000000">
				<ele>441.000000</ele>
				<time>2009-09-06T12:49:11.000Z</time>
				<speed>0.000000</speed>
			</trkpt>
			<trkpt lat="49.379300000000" lon="11.352230000000">
				<ele>442.000000</ele>
				<time>2009-09-06T12:49:16.000Z</time>
				<speed>0.000000</speed>
			</trkpt>
			<trkpt lat="49.379760000000" lon="11.352250000000">
				<ele>440.000000</ele>
				<time>2009-09-06T12:50:02.000Z</time>
				<speed>0.000000</speed>
			</trkpt>
			<trkpt lat="49.379770000000" lon="11.352250000000">
				<ele>440.000000</ele>
				<time>2009-09-06T12:50:03.000Z</time>
				<speed>0.000000</speed>
			</trkpt>
			<trkpt lat="49.379810000000" lon="11.352240000000">
				<ele>440.000000</ele>
				<time>2009-09-06T12:50:10.000Z</time>
				<speed>0.000000</speed>
			</trkpt>
			<trkpt lat="49.380190000000" lon="11.352290000000">
				<ele>435.000000</ele>
				<time>2009-09-06T12:50:49.000Z</time>
				<speed>0.000000</speed>
			</trkpt>
			<trkpt lat="49.380480000000" lon="11.352310000000">
				<ele>434.000000</ele>
				<time>2009-09-06T12:51:21.000Z</time>
				<speed>0.000000</speed>
			</trkpt>
			<trkpt lat="49.380940000000" lon="11.352350000000">
				<ele>437.000000</ele>
				<time>2009-09-06T12:51:57.000Z</time>
				<speed>0.000000</speed>
			</trkpt>
			<trkpt lat="49.380950000000" lon="11.352350000000">
				<ele>437.000000</ele>
				<time>2009-09-06T12:51:58.000Z</time>
				<speed>0.000000</speed>
			</trkpt>
			<trkpt lat="49.381290000000" lon="11.352380000000">
				<ele>448.000000</ele>
				<time>2009-09-06T12:52:25.000Z</time>
				<speed>0.000000</speed>
			</trkpt>
			<trkpt lat="49.381640000000" lon="11.352520000000">
				<ele>444.000000</ele>
				<time>2009-09-06T12:53:02.000Z</time>
				<speed>0.000000</speed>
			</trkpt>
			<trkpt lat="49.381720000000" lon="11.352580000000">
				<ele>441.000000</ele>
				<time>2009-09-06T12:53:11.000Z</time>
				<speed>0.000000</speed>
			</trkpt>
			<trkpt lat="49.381790000000" lon="11.352600000000">
				<ele>441.000000</ele>
				<time>2009-09-06T12:53:26.000Z</time>
				<speed>0.000000</speed>
			</trkpt>
			<trkpt lat="49.381950000000" lon="11.352610000000">
				<ele>446.000000</ele>
				<time>2009-09-06T12:53:43.000Z</time>
				<speed>0.000000</speed>
			</trkpt>
			<trkpt lat="49.382280000000" lon="11.352730000000">
				<ele>451.000000</ele>
				<time>2009-09-06T12:54:14.000Z</time>
				<speed>0.000000</speed>
			</trkpt>
			<trkpt lat="49.382350000000" lon="11.352750000000">
				<ele>450.000000</ele>
				<time>2009-09-06T12:54:21.000Z</time>
				<speed>0.000000</speed>
			</trkpt>
			<trkpt lat="49.382450000000" lon="11.352810000000">
				<ele>450.000000</ele>
				<time>2009-09-06T12:54:31.000Z</time>
				<speed>0.000000</speed>
			</trkpt>
			<trkpt lat="49.382700000000" lon="11.352840000000">
				<ele>448.000000</ele>
				<time>2009-09-06T12:54:58.000Z</time>
				<speed>0.000000</speed>
			</trkpt>
			<trkpt lat="49.382750000000" lon="11.352850000000">
				<ele>447.000000</ele>
				<time>2009-09-06T12:55:05.000Z</time>
				<speed>0.000000</speed>
			</trkpt>
			<trkpt lat="49.382820000000" lon="11.352890000000">
				<ele>446.000000</ele>
				<time>2009-09-06T12:55:12.000Z</time>
				<speed>0.000000</speed>
			</trkpt>
			<trkpt lat="49.383230000000" lon="11.352990000000">
				<ele>444.000000</ele>
				<time>2009-09-06T12:55:48.000Z</time>
				<speed>0.000000</speed>
			</trkpt>
			<trkpt lat="49.383630000000" lon="11.352950000000">
				<ele>449.000000</ele>
				<time>2009-09-06T12:56:26.000Z</time>
				<speed>0.000000</speed>
			</trkpt>
			<trkpt lat="49.383850000000" lon="11.352900000000">
				<ele>445.000000</ele>
				<time>2009-09-06T12:56:51.000Z</time>
				<speed>0.000000</speed>
			</trkpt>
			<trkpt lat="49.383930000000" lon="11.352890000000">
				<ele>443.000000</ele>
				<time>2009-09-06T12:57:01.000Z</time>
				<speed>0.000000</speed>
			</trkpt>
			<trkpt lat="49.384020000000" lon="11.352910000000">
				<ele>444.000000</ele>
				<time>2009-09-06T12:57:09.000Z</time>
				<speed>0.000000</speed>
			</trkpt>
			<trkpt lat="49.384480000000" lon="11.352900000000">
				<ele>439.000000</ele>
				<time>2009-09-06T12:57:52.000Z</time>
				<speed>0.000000</speed>
			</trkpt>
			<trkpt lat="49.384490000000" lon="11.352900000000">
				<ele>438.000000</ele>
				<time>2009-09-06T12:57:53.000Z</time>
				<speed>0.000000</speed>
			</trkpt>
			<trkpt lat="49.384680000000" lon="11.352920000000">
				<ele>438.000000</ele>
				<time>2009-09-06T12:58:13.000Z</time>
				<speed>0.000000</speed>
			</trkpt>
			<trkpt lat="49.385100000000" lon="11.352900000000">
				<ele>446.000000</ele>
				<time>2009-09-06T12:58:48.000Z</time>
				<speed>0.000000</speed>
			</trkpt>
			<trkpt lat="49.385220000000" lon="11.353010000000">
				<ele>445.000000</ele>
				<time>2009-09-06T12:59:02.000Z</time>
				<speed>0.000000</speed>
			</trkpt>
			<trkpt lat="49.385280000000" lon="11.353040000000">
				<ele>443.000000</ele>
				<time>2009-09-06T12:59:09.000Z</time>
				<speed>0.000000</speed>
			</trkpt>
			<trkpt lat="49.385420000000" lon="11.353040000000">
				<ele>445.000000</ele>
				<time>2009-09-06T12:59:32.000Z</time>
				<speed>0.000000</speed>
			</trkpt>
			<trkpt lat="49.385710000000" lon="11.353100000000">
				<ele>453.000000</ele>
				<time>2009-09-06T13:00:10.000Z</time>
				<speed>0.000000</speed>
			</trkpt>
			<trkpt lat="49.385780000000" lon="11.353110000000">
				<ele>442.000000</ele>
				<time>2009-09-06T13:00:34.000Z</time>
				<speed>0.000000</speed>
			</trkpt>
			<trkpt lat="49.385850000000" lon="11.353120000000">
				<ele>437.000000</ele>
				<time>2009-09-06T13:00:42.000Z</time>
				<speed>0.000000</speed>
			</trkpt>
			<trkpt lat="49.385920000000" lon="11.353130000000">
				<ele>435.000000</ele>
				<time>2009-09-06T13:00:55.000Z</time>
				<speed>0.000000</speed>
			</trkpt>
			<trkpt lat="49.386000000000" lon="11.353160000000">
				<ele>439.000000</ele>
				<time>2009-09-06T13:01:06.000Z</time>
				<speed>0.000000</speed>
			</trkpt>
			<trkpt lat="49.386050000000" lon="11.353140000000">
				<ele>444.000000</ele>
				<time>2009-09-06T13:01:14.000Z</time>
				<speed>0.000000</speed>
			</trkpt>
			<trkpt lat="49.386260000000" lon="11.353100000000">
				<ele>451.000000</ele>
				<time>2009-09-06T13:01:40.000Z</time>
				<speed>0.000000</speed>
			</trkpt>
			<trkpt lat="49.386320000000" lon="11.353110000000">
				<ele>451.000000</ele>
				<time>2009-09-06T13:01:48.000Z</time>
				<speed>0.000000</speed>
			</trkpt>
			<trkpt lat="49.386360000000" lon="11.353150000000">
				<ele>450.000000</ele>
				<time>2009-09-06T13:01:54.000Z</time>
				<speed>0.000000</speed>
			</trkpt>
			<trkpt lat="49.386410000000" lon="11.353190000000">
				<ele>449.000000</ele>
				<time>2009-09-06T13:02:01.000Z</time>
				<speed>0.000000</speed>
			</trkpt>
			<trkpt lat="49.386510000000" lon="11.353290000000">
				<ele>446.000000</ele>
				<time>2009-09-06T13:02:18.000Z</time>
				<speed>0.000000</speed>
			</trkpt>
			<trkpt lat="49.386760000000" lon="11.353640000000">
				<ele>445.000000</ele>
				<time>2009-09-06T13:03:30.000Z</time>
				<speed>0.000000</speed>
			</trkpt>
			<trkpt lat="49.386860000000" lon="11.353790000000">
				<ele>445.000000</ele>
				<time>2009-09-06T13:03:48.000Z</time>
				<speed>0.000000</speed>
			</trkpt>
			<trkpt lat="49.387040000000" lon="11.354000000000">
				<ele>446.000000</ele>
				<time>2009-09-06T13:04:13.000Z</time>
				<speed>0.000000</speed>
			</trkpt>
			<trkpt lat="49.387120000000" lon="11.354150000000">
				<ele>444.000000</ele>
				<time>2009-09-06T13:04:28.000Z</time>
				<speed>0.000000</speed>
			</trkpt>
			<trkpt lat="49.387170000000" lon="11.354240000000">
				<ele>443.000000</ele>
				<time>2009-09-06T13:04:37.000Z</time>
				<speed>0.000000</speed>
			</trkpt>
			<trkpt lat="49.387330000000" lon="11.354470000000">
				<ele>442.000000</ele>
				<time>2009-09-06T13:05:04.000Z</time>
				<speed>0.000000</speed>
			</trkpt>
			<trkpt lat="49.387360000000" lon="11.354570000000">
				<ele>441.000000</ele>
				<time>2009-09-06T13:05:13.000Z</time>
				<speed>0.000000</speed>
			</trkpt>
			<trkpt lat="49.387440000000" lon="11.354690000000">
				<ele>442.000000</ele>
				<time>2009-09-06T13:05:28.000Z</time>
				<speed>0.000000</speed>
			</trkpt>
			<trkpt lat="49.387490000000" lon="11.354720000000">
				<ele>446.000000</ele>
				<time>2009-09-06T13:05:44.000Z</time>
				<speed>0.000000</speed>
			</trkpt>
			<trkpt lat="49.387570000000" lon="11.354690000000">
				<ele>449.000000</ele>
				<time>2009-09-06T13:05:56.000Z</time>
				<speed>0.000000</speed>
			</trkpt>
			<trkpt lat="49.387700000000" lon="11.354590000000">
				<ele>450.000000</ele>
				<time>2009-09-06T13:06:12.000Z</time>
				<speed>0.000000</speed>
			</trkpt>
			<trkpt lat="49.387800000000" lon="11.354520000000">
				<ele>451.000000</ele>
				<time>2009-09-06T13:06:29.000Z</time>
				<speed>0.000000</speed>
			</trkpt>
			<trkpt lat="49.388040000000" lon="11.354370000000">
				<ele>454.000000</ele>
				<time>2009-09-06T13:07:04.000Z</time>
				<speed>0.000000</speed>
			</trkpt>
			<trkpt lat="49.388110000000" lon="11.354390000000">
				<ele>454.000000</ele>
				<time>2009-09-06T13:07:14.000Z</time>
				<speed>0.000000</speed>
			</trkpt>
			<trkpt lat="49.388170000000" lon="11.354420000000">
				<ele>454.000000</ele>
				<time>2009-09-06T13:07:23.000Z</time>
				<speed>0.000000</speed>
			</trkpt>
			<trkpt lat="49.388240000000" lon="11.354340000000">
				<ele>452.000000</ele>
				<time>2009-09-06T13:07:36.000Z</time>
				<speed>0.000000</speed>
			</trkpt>
			<trkpt lat="49.388320000000" lon="11.354330000000">
				<ele>451.000000</ele>
				<time>2009-09-06T13:07:46.000Z</time>
				<speed>0.000000</speed>
			</trkpt>
			<trkpt lat="49.388400000000" lon="11.354440000000">
				<ele>449.000000</ele>
				<time>2009-09-06T13:07:59.000Z</time>
				<speed>0.000000</speed>
			</trkpt>
			<trkpt lat="49.388420000000" lon="11.354520000000">
				<ele>446.000000</ele>
				<time>2009-09-06T13:08:06.000Z</time>
				<speed>0.000000</speed>
			</trkpt>
			<trkpt lat="49.388620000000" lon="11.354890000000">
				<ele>445.000000</ele>
				<time>2009-09-06T13:08:39.000Z</time>
				<speed>0.000000</speed>
			</trkpt>
			<trkpt lat="49.388670000000" lon="11.354930000000">
				<ele>445.000000</ele>
				<time>2009-09-06T13:08:45.000Z</time>
				<speed>0.000000</speed>
			</trkpt>
			<trkpt lat="49.388710000000" lon="11.354980000000">
				<ele>443.000000</ele>
				<time>2009-09-06T13:08:54.000Z</time>
				<speed>0.000000</speed>
			</trkpt>
			<trkpt lat="49.388760000000" lon="11.354990000000">
				<ele>439.000000</ele>
				<time>2009-09-06T13:09:04.000Z</time>
				<speed>0.000000</speed>
			</trkpt>
			<trkpt lat="49.388810000000" lon="11.354920000000">
				<ele>440.000000</ele>
				<time>2009-09-06T13:09:14.000Z</time>
				<speed>0.000000</speed>
			</trkpt>
			<trkpt lat="49.388910000000" lon="11.354890000000">
				<ele>442.000000</ele>
				<time>2009-09-06T13:09:47.000Z</time>
				<speed>0.000000</speed>
			</trkpt>
			<trkpt lat="49.388920000000" lon="11.354880000000">
				<ele>445.000000</ele>
				<time>2009-09-06T13:10:07.000Z</time>
				<speed>0.000000</speed>
			</trkpt>
		</trkseg>
		<extensions>
			<mgln:color xmlns:mgln="http://www.magellangps.com/mgln/1/0">8388608</mgln:color>
			<mgln:flags xmlns:mgln="http://www.magellangps.com/mgln/1/0">1</mgln:flags>
		</extensions>
	</trk>
</gpx>
